<?xml version='1.0' encoding='UTF-8'?><gpx version="1.1" creator="JPX - https://github.com/jenetics/jpx" xmlns="http://www.topografix.com/GPX/1/1"><trk><trkseg><trkpt lat="44.1327633" lon="12.1637183"><ele>153.0</ele><time>2026-03-29T09:33:25.828Z</time></trkpt><trkpt lat="44.1326933" lon="12.1637083"><ele>153.0</ele><time>2026-03-29T09:33:35.83Z</time></trkpt><trkpt lat="44.1326183" lon="12.1637083"><ele>153.0</ele><time>2026-03-29T09:33:41.829Z</time></trkpt><trkpt lat="44.132545" lon="12.16366"><ele>153.0</ele><time>2026-03-29T09:33:44.828Z</time></trkpt><trkpt lat="44.1324867" lon="12.163625"><ele>153.0</ele><time>2026-03-29T09:33:47.827Z</time></trkpt><trkpt lat="44.1324033" lon="12.16359"><ele>153.0</ele><time>2026-03-29T09:33:51.827Z</time></trkpt><trkpt lat="44.13233" lon="12.1635683"><ele>153.33333333333334</ele><time>2026-03-29T09:33:53.829Z</time></trkpt><trkpt lat="44.1322683" lon="12.1636333"><ele>153.66666666666666</ele><time>2026-03-29T09:34:13.828Z</time></trkpt><trkpt lat="44.1322283" lon="12.1637067"><ele>154.0</ele><time>2026-03-29T09:34:15.83Z</time></trkpt><trkpt lat="44.132195" lon="12.1638317"><ele>154.33333333333331</ele><time>2026-03-29T09:34:17.828Z</time></trkpt><trkpt lat="44.1321483" lon="12.163955"><ele>154.66666666666666</ele><time>2026-03-29T09:34:19.829Z</time></trkpt><trkpt lat="44.1321183" lon="12.1640333"><ele>155.0</ele><time>2026-03-29T09:34:20.828Z</time></trkpt><trkpt lat="44.13208" lon="12.1641517"><ele>155.0</ele><time>2026-03-29T09:34:22.827Z</time></trkpt><trkpt lat="44.1320433" lon="12.1642817"><ele>155.0</ele><time>2026-03-29T09:34:24.83Z</time></trkpt><trkpt lat="44.131955" lon="12.16442"><ele>155.0</ele><time>2026-03-29T09:34:26.829Z</time></trkpt><trkpt lat="44.13189" lon="12.16455"><ele>155.0</ele><time>2026-03-29T09:34:28.828Z</time></trkpt><trkpt lat="44.1318133" lon="12.164695"><ele>155.0</ele><time>2026-03-29T09:34:30.833Z</time></trkpt><trkpt lat="44.1317767" lon="12.164775"><ele>155.0</ele><time>2026-03-29T09:34:31.828Z</time></trkpt><trkpt lat="44.1317417" lon="12.1648517"><ele>155.0</ele><time>2026-03-29T09:34:32.828Z</time></trkpt><trkpt lat="44.1317067" lon="12.1649317"><ele>155.0</ele><time>2026-03-29T09:34:33.827Z</time></trkpt><trkpt lat="44.1316783" lon="12.165015"><ele>155.0</ele><time>2026-03-29T09:34:34.829Z</time></trkpt><trkpt lat="44.131645" lon="12.1650983"><ele>155.0</ele><time>2026-03-29T09:34:35.828Z</time></trkpt><trkpt lat="44.1316117" lon="12.1651833"><ele>155.0</ele><time>2026-03-29T09:34:36.831Z</time></trkpt><trkpt lat="44.13156" lon="12.16534"><ele>154.2</ele><time>2026-03-29T09:34:38.829Z</time></trkpt><trkpt lat="44.13154" lon="12.165425"><ele>153.4</ele><time>2026-03-29T09:34:39.83Z</time></trkpt><trkpt lat="44.13149" lon="12.1655867"><ele>152.6</ele><time>2026-03-29T09:34:41.828Z</time></trkpt><trkpt lat="44.1314467" lon="12.1657433"><ele>151.8</ele><time>2026-03-29T09:34:43.828Z</time></trkpt><trkpt lat="44.1314233" lon="12.1658267"><ele>151.0</ele><time>2026-03-29T09:34:44.828Z</time></trkpt><trkpt lat="44.1313833" lon="12.1659767"><ele>151.0</ele><time>2026-03-29T09:34:46.827Z</time></trkpt><trkpt lat="44.1313417" lon="12.1661183"><ele>151.0</ele><time>2026-03-29T09:34:48.831Z</time></trkpt><trkpt lat="44.1312983" lon="12.16628"><ele>151.0</ele><time>2026-03-29T09:34:50.832Z</time></trkpt><trkpt lat="44.13125" lon="12.1664383"><ele>151.0</ele><time>2026-03-29T09:34:52.828Z</time></trkpt><trkpt lat="44.131205" lon="12.16659"><ele>152.0</ele><time>2026-03-29T09:34:54.828Z</time></trkpt><trkpt lat="44.1311567" lon="12.166735"><ele>153.0</ele><time>2026-03-29T09:34:56.829Z</time></trkpt><trkpt lat="44.13112" lon="12.1668767"><ele>154.0</ele><time>2026-03-29T09:34:58.83Z</time></trkpt><trkpt lat="44.1310917" lon="12.167"><ele>155.0</ele><time>2026-03-29T09:35:00.83Z</time></trkpt><trkpt lat="44.1310483" lon="12.1670683"><ele>156.0</ele><time>2026-03-29T09:35:02.829Z</time></trkpt><trkpt lat="44.1309733" lon="12.1671133"><ele>156.0</ele><time>2026-03-29T09:35:04.829Z</time></trkpt><trkpt lat="44.13089" lon="12.16719"><ele>156.0</ele><time>2026-03-29T09:35:06.83Z</time></trkpt><trkpt lat="44.1307983" lon="12.1672783"><ele>156.0</ele><time>2026-03-29T09:35:08.83Z</time></trkpt><trkpt lat="44.1307033" lon="12.1673617"><ele>156.0</ele><time>2026-03-29T09:35:10.828Z</time></trkpt><trkpt lat="44.1306033" lon="12.16746"><ele>156.0</ele><time>2026-03-29T09:35:12.827Z</time></trkpt><trkpt lat="44.1305017" lon="12.167565"><ele>154.71428571428572</ele><time>2026-03-29T09:35:14.829Z</time></trkpt><trkpt lat="44.1304533" lon="12.1676217"><ele>153.42857142857142</ele><time>2026-03-29T09:35:15.828Z</time></trkpt><trkpt lat="44.1304067" lon="12.1676833"><ele>152.14285714285714</ele><time>2026-03-29T09:35:16.828Z</time></trkpt><trkpt lat="44.1303617" lon="12.167745"><ele>150.85714285714286</ele><time>2026-03-29T09:35:17.828Z</time></trkpt><trkpt lat="44.1303183" lon="12.16781"><ele>149.57142857142856</ele><time>2026-03-29T09:35:18.83Z</time></trkpt><trkpt lat="44.1302767" lon="12.1678817"><ele>148.28571428571428</ele><time>2026-03-29T09:35:19.836Z</time></trkpt><trkpt lat="44.1302367" lon="12.1679617"><ele>147.0</ele><time>2026-03-29T09:35:20.827Z</time></trkpt><trkpt lat="44.1301983" lon="12.1680433"><ele>147.0</ele><time>2026-03-29T09:35:21.829Z</time></trkpt><trkpt lat="44.1301583" lon="12.1681233"><ele>147.0</ele><time>2026-03-29T09:35:22.828Z</time></trkpt><trkpt lat="44.1301167" lon="12.1682067"><ele>147.0</ele><time>2026-03-29T09:35:23.827Z</time></trkpt><trkpt lat="44.130075" lon="12.1682917"><ele>147.0</ele><time>2026-03-29T09:35:24.831Z</time></trkpt><trkpt lat="44.130035" lon="12.1683883"><ele>147.0</ele><time>2026-03-29T09:35:25.828Z</time></trkpt><trkpt lat="44.1299917" lon="12.1684833"><ele>147.0</ele><time>2026-03-29T09:35:26.83Z</time></trkpt><trkpt lat="44.129945" lon="12.1685767"><ele>147.33333333333334</ele><time>2026-03-29T09:35:27.827Z</time></trkpt><trkpt lat="44.1298967" lon="12.1686717"><ele>147.66666666666666</ele><time>2026-03-29T09:35:28.828Z</time></trkpt><trkpt lat="44.1298433" lon="12.1687633"><ele>148.0</ele><time>2026-03-29T09:35:29.828Z</time></trkpt><trkpt lat="44.1297917" lon="12.16885"><ele>148.33333333333331</ele><time>2026-03-29T09:35:30.828Z</time></trkpt><trkpt lat="44.1297383" lon="12.16893"><ele>148.66666666666666</ele><time>2026-03-29T09:35:31.83Z</time></trkpt><trkpt lat="44.1296783" lon="12.1690117"><ele>149.0</ele><time>2026-03-29T09:35:32.83Z</time></trkpt><trkpt lat="44.1296183" lon="12.16909"><ele>149.0</ele><time>2026-03-29T09:35:33.829Z</time></trkpt><trkpt lat="44.1295633" lon="12.1691633"><ele>149.0</ele><time>2026-03-29T09:35:34.829Z</time></trkpt><trkpt lat="44.12951" lon="12.169245"><ele>149.0</ele><time>2026-03-29T09:35:35.829Z</time></trkpt><trkpt lat="44.129455" lon="12.16932"><ele>149.0</ele><time>2026-03-29T09:35:36.834Z</time></trkpt><trkpt lat="44.1294033" lon="12.1693933"><ele>149.0</ele><time>2026-03-29T09:35:37.829Z</time></trkpt><trkpt lat="44.1293483" lon="12.1694733"><ele>149.0</ele><time>2026-03-29T09:35:38.83Z</time></trkpt><trkpt lat="44.129295" lon="12.1695483"><ele>149.0</ele><time>2026-03-29T09:35:39.829Z</time></trkpt><trkpt lat="44.1292417" lon="12.1696183"><ele>149.0</ele><time>2026-03-29T09:35:40.829Z</time></trkpt><trkpt lat="44.1291883" lon="12.1696917"><ele>149.0</ele><time>2026-03-29T09:35:41.835Z</time></trkpt><trkpt lat="44.1291383" lon="12.1697583"><ele>149.0</ele><time>2026-03-29T09:35:42.829Z</time></trkpt><trkpt lat="44.12905" lon="12.169865"><ele>149.0</ele><time>2026-03-29T09:35:44.83Z</time></trkpt><trkpt lat="44.12898" lon="12.16997"><ele>149.0</ele><time>2026-03-29T09:35:46.829Z</time></trkpt><trkpt lat="44.1289233" lon="12.1700567"><ele>149.71428571428572</ele><time>2026-03-29T09:35:48.829Z</time></trkpt><trkpt lat="44.1288667" lon="12.1701367"><ele>150.42857142857142</ele><time>2026-03-29T09:35:50.835Z</time></trkpt><trkpt lat="44.1288233" lon="12.170225"><ele>151.14285714285714</ele><time>2026-03-29T09:35:53.83Z</time></trkpt><trkpt lat="44.128795" lon="12.17031"><ele>151.85714285714286</ele><time>2026-03-29T09:35:56.832Z</time></trkpt><trkpt lat="44.1288333" lon="12.1702217"><ele>152.57142857142856</ele><time>2026-03-29T09:36:38.83Z</time></trkpt><trkpt lat="44.12888" lon="12.170145"><ele>153.28571428571428</ele><time>2026-03-29T09:36:40.83Z</time></trkpt><trkpt lat="44.1289383" lon="12.170075"><ele>154.0</ele><time>2026-03-29T09:36:42.828Z</time></trkpt><trkpt lat="44.12899" lon="12.1700083"><ele>154.0</ele><time>2026-03-29T09:36:44.827Z</time></trkpt><trkpt lat="44.1290333" lon="12.169935"><ele>154.0</ele><time>2026-03-29T09:36:46.833Z</time></trkpt><trkpt lat="44.12906" lon="12.1698533"><ele>154.0</ele><time>2026-03-29T09:36:49.827Z</time></trkpt><trkpt lat="44.1290083" lon="12.1697967"><ele>154.0</ele><time>2026-03-29T09:36:53.83Z</time></trkpt><trkpt lat="44.1289433" lon="12.1697033"><ele>154.0</ele><time>2026-03-29T09:36:55.828Z</time></trkpt><trkpt lat="44.12887" lon="12.1696383"><ele>154.0</ele><time>2026-03-29T09:36:57.83Z</time></trkpt><trkpt lat="44.1288083" lon="12.1695783"><ele>153.33333333333334</ele><time>2026-03-29T09:36:59.827Z</time></trkpt><trkpt lat="44.128735" lon="12.1695083"><ele>152.66666666666669</ele><time>2026-03-29T09:37:02.829Z</time></trkpt><trkpt lat="44.12868" lon="12.1694567"><ele>152.0</ele><time>2026-03-29T09:37:04.827Z</time></trkpt><trkpt lat="44.1286233" lon="12.1694017"><ele>151.33333333333334</ele><time>2026-03-29T09:37:06.832Z</time></trkpt><trkpt lat="44.12855" lon="12.1693233"><ele>150.66666666666666</ele><time>2026-03-29T09:37:09.828Z</time></trkpt><trkpt lat="44.1284783" lon="12.169255"><ele>150.0</ele><time>2026-03-29T09:37:12.827Z</time></trkpt><trkpt lat="44.128415" lon="12.1691667"><ele>149.99999999999997</ele><time>2026-03-29T09:37:15.828Z</time></trkpt><trkpt lat="44.12838" lon="12.1690933"><ele>150.0</ele><time>2026-03-29T09:37:17.829Z</time></trkpt><trkpt lat="44.1283317" lon="12.169035"><ele>150.0</ele><time>2026-03-29T09:37:19.828Z</time></trkpt><trkpt lat="44.1282733" lon="12.1689883"><ele>150.0</ele><time>2026-03-29T09:37:21.836Z</time></trkpt><trkpt lat="44.1281983" lon="12.16897"><ele>150.0</ele><time>2026-03-29T09:37:23.83Z</time></trkpt><trkpt lat="44.1281283" lon="12.1689833"><ele>149.99999999999997</ele><time>2026-03-29T09:37:25.827Z</time></trkpt><trkpt lat="44.128055" lon="12.169005"><ele>150.0</ele><time>2026-03-29T09:37:27.83Z</time></trkpt><trkpt lat="44.1279867" lon="12.16904"><ele>149.28571428571428</ele><time>2026-03-29T09:37:29.829Z</time></trkpt><trkpt lat="44.12792" lon="12.1690533"><ele>148.57142857142856</ele><time>2026-03-29T09:37:32.828Z</time></trkpt><trkpt lat="44.1278417" lon="12.1690717"><ele>147.85714285714286</ele><time>2026-03-29T09:37:35.827Z</time></trkpt><trkpt lat="44.1277783" lon="12.1690833"><ele>147.14285714285714</ele><time>2026-03-29T09:37:38.829Z</time></trkpt><trkpt lat="44.1276967" lon="12.169095"><ele>146.42857142857144</ele><time>2026-03-29T09:37:41.828Z</time></trkpt><trkpt lat="44.127635" lon="12.169115"><ele>145.71428571428572</ele><time>2026-03-29T09:37:44.835Z</time></trkpt><trkpt lat="44.1275533" lon="12.169125"><ele>145.0</ele><time>2026-03-29T09:37:48.83Z</time></trkpt><trkpt lat="44.12748" lon="12.1691317"><ele>145.0</ele><time>2026-03-29T09:37:51.829Z</time></trkpt><trkpt lat="44.1274" lon="12.1691467"><ele>145.0</ele><time>2026-03-29T09:37:54.828Z</time></trkpt><trkpt lat="44.127335" lon="12.1691533"><ele>145.0</ele><time>2026-03-29T09:37:56.829Z</time></trkpt><trkpt lat="44.1272533" lon="12.1691483"><ele>145.0</ele><time>2026-03-29T09:37:58.83Z</time></trkpt><trkpt lat="44.1271817" lon="12.1691317"><ele>145.0</ele><time>2026-03-29T09:38:00.829Z</time></trkpt><trkpt lat="44.127115" lon="12.169115"><ele>145.0</ele><time>2026-03-29T09:38:02.828Z</time></trkpt><trkpt lat="44.1270383" lon="12.1690983"><ele>145.0</ele><time>2026-03-29T09:38:04.828Z</time></trkpt><trkpt lat="44.1269617" lon="12.1690683"><ele>142.83333333333334</ele><time>2026-03-29T09:38:06.83Z</time></trkpt><trkpt lat="44.1268883" lon="12.169045"><ele>140.66666666666669</ele><time>2026-03-29T09:38:08.83Z</time></trkpt><trkpt lat="44.1268" lon="12.1690017"><ele>138.5</ele><time>2026-03-29T09:38:11.827Z</time></trkpt><trkpt lat="44.1267333" lon="12.168975"><ele>136.33333333333334</ele><time>2026-03-29T09:38:13.827Z</time></trkpt><trkpt lat="44.1266633" lon="12.1689467"><ele>134.16666666666666</ele><time>2026-03-29T09:38:15.832Z</time></trkpt><trkpt lat="44.1266017" lon="12.1689183"><ele>132.0</ele><time>2026-03-29T09:38:17.828Z</time></trkpt><trkpt lat="44.126515" lon="12.1688783"><ele>129.33333333333334</ele><time>2026-03-29T09:38:20.828Z</time></trkpt><trkpt lat="44.12645" lon="12.1688467"><ele>126.66666666666666</ele><time>2026-03-29T09:38:22.828Z</time></trkpt><trkpt lat="44.1263667" lon="12.16881"><ele>124.0</ele><time>2026-03-29T09:38:24.827Z</time></trkpt><trkpt lat="44.1262783" lon="12.1687983"><ele>121.33333333333333</ele><time>2026-03-29T09:38:27.832Z</time></trkpt><trkpt lat="44.1261867" lon="12.1687817"><ele>118.66666666666666</ele><time>2026-03-29T09:38:30.828Z</time></trkpt><trkpt lat="44.1261" lon="12.1687633"><ele>116.0</ele><time>2026-03-29T09:38:33.831Z</time></trkpt><trkpt lat="44.126035" lon="12.16873"><ele>116.00000000000001</ele><time>2026-03-29T09:38:36.826Z</time></trkpt><trkpt lat="44.1259683" lon="12.1686983"><ele>116.0</ele><time>2026-03-29T09:38:39.826Z</time></trkpt><trkpt lat="44.12588" lon="12.1686733"><ele>116.00000000000001</ele><time>2026-03-29T09:38:43.827Z</time></trkpt><trkpt lat="44.1257983" lon="12.1686383"><ele>116.00000000000001</ele><time>2026-03-29T09:38:46.826Z</time></trkpt><trkpt lat="44.125735" lon="12.1686117"><ele>116.0</ele><time>2026-03-29T09:38:48.826Z</time></trkpt><trkpt lat="44.12567" lon="12.1685767"><ele>116.00000000000001</ele><time>2026-03-29T09:38:50.828Z</time></trkpt><trkpt lat="44.1256133" lon="12.168535"><ele>116.00000000000001</ele><time>2026-03-29T09:38:52.831Z</time></trkpt><trkpt lat="44.12552" lon="12.16849"><ele>115.66666666666666</ele><time>2026-03-29T09:38:55.829Z</time></trkpt><trkpt lat="44.125445" lon="12.1684483"><ele>115.33333333333333</ele><time>2026-03-29T09:38:58.83Z</time></trkpt><trkpt lat="44.125365" lon="12.1684117"><ele>115.0</ele><time>2026-03-29T09:39:01.832Z</time></trkpt><trkpt lat="44.1252883" lon="12.1683817"><ele>114.66666666666666</ele><time>2026-03-29T09:39:04.827Z</time></trkpt><trkpt lat="44.1252217" lon="12.1683567"><ele>114.33333333333333</ele><time>2026-03-29T09:39:07.831Z</time></trkpt><trkpt lat="44.1251467" lon="12.1683167"><ele>114.0</ele><time>2026-03-29T09:39:11.826Z</time></trkpt><trkpt lat="44.1250717" lon="12.16828"><ele>114.0</ele><time>2026-03-29T09:39:14.829Z</time></trkpt><trkpt lat="44.1249883" lon="12.1682633"><ele>114.0</ele><time>2026-03-29T09:39:17.829Z</time></trkpt><trkpt lat="44.1249017" lon="12.168265"><ele>114.0</ele><time>2026-03-29T09:39:20.829Z</time></trkpt><trkpt lat="44.1248133" lon="12.1682667"><ele>114.0</ele><time>2026-03-29T09:39:23.828Z</time></trkpt><trkpt lat="44.124725" lon="12.1682883"><ele>114.0</ele><time>2026-03-29T09:39:26.83Z</time></trkpt><trkpt lat="44.1246517" lon="12.168325"><ele>114.0</ele><time>2026-03-29T09:39:29.828Z</time></trkpt><trkpt lat="44.1245933" lon="12.16838"><ele>111.83333333333333</ele><time>2026-03-29T09:39:31.829Z</time></trkpt><trkpt lat="44.1245333" lon="12.1684617"><ele>109.66666666666666</ele><time>2026-03-29T09:39:33.827Z</time></trkpt><trkpt lat="44.1244667" lon="12.16855"><ele>107.5</ele><time>2026-03-29T09:39:35.833Z</time></trkpt><trkpt lat="44.1244017" lon="12.1686233"><ele>105.33333333333333</ele><time>2026-03-29T09:39:37.827Z</time></trkpt><trkpt lat="44.1243333" lon="12.1687083"><ele>103.16666666666666</ele><time>2026-03-29T09:39:39.827Z</time></trkpt><trkpt lat="44.1242733" lon="12.1687817"><ele>101.0</ele><time>2026-03-29T09:39:41.827Z</time></trkpt><trkpt lat="44.1242067" lon="12.1688383"><ele>100.99999999999999</ele><time>2026-03-29T09:39:44.826Z</time></trkpt><trkpt lat="44.124135" lon="12.1688983"><ele>101.0</ele><time>2026-03-29T09:39:47.826Z</time></trkpt><trkpt lat="44.1240567" lon="12.1689583"><ele>101.0</ele><time>2026-03-29T09:39:50.829Z</time></trkpt><trkpt lat="44.1240017" lon="12.1690083"><ele>101.0</ele><time>2026-03-29T09:39:52.831Z</time></trkpt><trkpt lat="44.1239317" lon="12.169065"><ele>100.99999999999999</ele><time>2026-03-29T09:39:54.83Z</time></trkpt><trkpt lat="44.1238533" lon="12.1691567"><ele>101.0</ele><time>2026-03-29T09:39:56.829Z</time></trkpt><trkpt lat="44.1237783" lon="12.1692483"><ele>98.49999999999999</ele><time>2026-03-29T09:39:58.829Z</time></trkpt><trkpt lat="44.1237033" lon="12.1693283"><ele>96.0</ele><time>2026-03-29T09:40:00.829Z</time></trkpt><trkpt lat="44.1236383" lon="12.169415"><ele>93.5</ele><time>2026-03-29T09:40:02.829Z</time></trkpt><trkpt lat="44.12358" lon="12.1694833"><ele>91.0</ele><time>2026-03-29T09:40:04.828Z</time></trkpt><trkpt lat="44.12352" lon="12.1695467"><ele>88.5</ele><time>2026-03-29T09:40:06.829Z</time></trkpt><trkpt lat="44.123455" lon="12.1696"><ele>86.0</ele><time>2026-03-29T09:40:08.83Z</time></trkpt><trkpt lat="44.123395" lon="12.1696517"><ele>86.00000000000001</ele><time>2026-03-29T09:40:10.827Z</time></trkpt><trkpt lat="44.123335" lon="12.1697"><ele>86.0</ele><time>2026-03-29T09:40:12.831Z</time></trkpt><trkpt lat="44.123275" lon="12.16976"><ele>86.0</ele><time>2026-03-29T09:40:14.828Z</time></trkpt><trkpt lat="44.123215" lon="12.1698183"><ele>86.0</ele><time>2026-03-29T09:40:16.83Z</time></trkpt><trkpt lat="44.1231567" lon="12.169875"><ele>86.0</ele><time>2026-03-29T09:40:18.829Z</time></trkpt><trkpt lat="44.1230933" lon="12.1699433"><ele>86.00000000000001</ele><time>2026-03-29T09:40:20.829Z</time></trkpt><trkpt lat="44.1230333" lon="12.17001"><ele>86.0</ele><time>2026-03-29T09:40:22.828Z</time></trkpt><trkpt lat="44.1229783" lon="12.1700833"><ele>83.83333333333334</ele><time>2026-03-29T09:40:24.831Z</time></trkpt><trkpt lat="44.122935" lon="12.1701517"><ele>81.66666666666667</ele><time>2026-03-29T09:40:26.83Z</time></trkpt><trkpt lat="44.1228733" lon="12.170205"><ele>79.5</ele><time>2026-03-29T09:40:28.83Z</time></trkpt><trkpt lat="44.1228167" lon="12.1702567"><ele>77.33333333333333</ele><time>2026-03-29T09:40:30.829Z</time></trkpt><trkpt lat="44.1227417" lon="12.1703217"><ele>75.16666666666666</ele><time>2026-03-29T09:40:33.83Z</time></trkpt><trkpt lat="44.122685" lon="12.1704"><ele>73.0</ele><time>2026-03-29T09:40:36.828Z</time></trkpt><trkpt lat="44.1226317" lon="12.1704967"><ele>73.0</ele><time>2026-03-29T09:40:40.828Z</time></trkpt><trkpt lat="44.12257" lon="12.17054"><ele>73.0</ele><time>2026-03-29T09:40:43.829Z</time></trkpt><trkpt lat="44.1225233" lon="12.17044"><ele>73.0</ele><time>2026-03-29T09:40:47.827Z</time></trkpt><trkpt lat="44.1224967" lon="12.1703567"><ele>73.0</ele><time>2026-03-29T09:40:49.827Z</time></trkpt><trkpt lat="44.12245" lon="12.170245"><ele>73.0</ele><time>2026-03-29T09:40:52.833Z</time></trkpt><trkpt lat="44.1224167" lon="12.170165"><ele>73.0</ele><time>2026-03-29T09:40:54.827Z</time></trkpt><trkpt lat="44.1223833" lon="12.1700733"><ele>73.71428571428571</ele><time>2026-03-29T09:40:56.828Z</time></trkpt><trkpt lat="44.122345" lon="12.1699933"><ele>74.42857142857143</ele><time>2026-03-29T09:40:58.827Z</time></trkpt><trkpt lat="44.1223067" lon="12.169905"><ele>75.14285714285714</ele><time>2026-03-29T09:41:00.828Z</time></trkpt><trkpt lat="44.12227" lon="12.1698117"><ele>75.85714285714286</ele><time>2026-03-29T09:41:02.828Z</time></trkpt><trkpt lat="44.1222333" lon="12.1697167"><ele>76.57142857142857</ele><time>2026-03-29T09:41:04.827Z</time></trkpt><trkpt lat="44.1221917" lon="12.1696267"><ele>77.28571428571429</ele><time>2026-03-29T09:41:06.831Z</time></trkpt><trkpt lat="44.1221517" lon="12.1695417"><ele>78.0</ele><time>2026-03-29T09:41:08.827Z</time></trkpt><trkpt lat="44.1221133" lon="12.16945"><ele>78.0</ele><time>2026-03-29T09:41:10.827Z</time></trkpt><trkpt lat="44.12208" lon="12.1693617"><ele>78.0</ele><time>2026-03-29T09:41:12.827Z</time></trkpt><trkpt lat="44.12204" lon="12.169275"><ele>78.0</ele><time>2026-03-29T09:41:14.827Z</time></trkpt><trkpt lat="44.121995" lon="12.1692033"><ele>78.0</ele><time>2026-03-29T09:41:16.827Z</time></trkpt><trkpt lat="44.1219483" lon="12.1691317"><ele>78.0</ele><time>2026-03-29T09:41:18.83Z</time></trkpt><trkpt lat="44.1218967" lon="12.169075"><ele>78.0</ele><time>2026-03-29T09:41:20.829Z</time></trkpt><trkpt lat="44.1218433" lon="12.169025"><ele>78.0</ele><time>2026-03-29T09:41:22.828Z</time></trkpt><trkpt lat="44.12179" lon="12.1689783"><ele>78.83333333333333</ele><time>2026-03-29T09:41:24.826Z</time></trkpt><trkpt lat="44.1217367" lon="12.1689267"><ele>79.66666666666667</ele><time>2026-03-29T09:41:26.828Z</time></trkpt><trkpt lat="44.12168" lon="12.16888"><ele>80.5</ele><time>2026-03-29T09:41:28.827Z</time></trkpt><trkpt lat="44.121605" lon="12.1688217"><ele>81.33333333333334</ele><time>2026-03-29T09:41:31.827Z</time></trkpt><trkpt lat="44.1215167" lon="12.1688017"><ele>82.16666666666667</ele><time>2026-03-29T09:41:34.828Z</time></trkpt><trkpt lat="44.12144" lon="12.16877"><ele>83.0</ele><time>2026-03-29T09:41:37.828Z</time></trkpt><trkpt lat="44.1213633" lon="12.1687317"><ele>83.5</ele><time>2026-03-29T09:41:40.826Z</time></trkpt><trkpt lat="44.121285" lon="12.168695"><ele>84.0</ele><time>2026-03-29T09:41:43.829Z</time></trkpt><trkpt lat="44.1211983" lon="12.1686417"><ele>84.5</ele><time>2026-03-29T09:41:46.828Z</time></trkpt><trkpt lat="44.1211367" lon="12.1686133"><ele>85.0</ele><time>2026-03-29T09:41:48.83Z</time></trkpt><trkpt lat="44.1210583" lon="12.16855"><ele>85.5</ele><time>2026-03-29T09:41:51.828Z</time></trkpt><trkpt lat="44.1209833" lon="12.1684983"><ele>86.0</ele><time>2026-03-29T09:41:54.828Z</time></trkpt><trkpt lat="44.1209817" lon="12.1684083"><ele>86.0</ele><time>2026-03-29T09:42:05.827Z</time></trkpt><trkpt lat="44.120915" lon="12.1684433"><ele>86.0</ele><time>2026-03-29T09:42:09.83Z</time></trkpt><trkpt lat="44.1208433" lon="12.1683983"><ele>86.0</ele><time>2026-03-29T09:43:33.83Z</time></trkpt><trkpt lat="44.1207683" lon="12.1683183"><ele>86.0</ele><time>2026-03-29T09:43:36.827Z</time></trkpt><trkpt lat="44.1207117" lon="12.1682567"><ele>86.0</ele><time>2026-03-29T09:43:38.827Z</time></trkpt><trkpt lat="44.12065" lon="12.1682017"><ele>86.0</ele><time>2026-03-29T09:43:40.828Z</time></trkpt><trkpt lat="44.1205867" lon="12.168155"><ele>86.33333333333334</ele><time>2026-03-29T09:43:42.828Z</time></trkpt><trkpt lat="44.1205267" lon="12.1681033"><ele>86.66666666666667</ele><time>2026-03-29T09:43:44.829Z</time></trkpt><trkpt lat="44.12046" lon="12.16804"><ele>87.0</ele><time>2026-03-29T09:43:46.831Z</time></trkpt><trkpt lat="44.120395" lon="12.16797"><ele>87.33333333333333</ele><time>2026-03-29T09:43:48.826Z</time></trkpt><trkpt lat="44.12032" lon="12.16791"><ele>87.66666666666666</ele><time>2026-03-29T09:43:50.828Z</time></trkpt><trkpt lat="44.120255" lon="12.1678417"><ele>88.0</ele><time>2026-03-29T09:43:52.828Z</time></trkpt><trkpt lat="44.1201867" lon="12.16777"><ele>88.0</ele><time>2026-03-29T09:43:54.826Z</time></trkpt><trkpt lat="44.1201183" lon="12.16769"><ele>88.0</ele><time>2026-03-29T09:43:56.829Z</time></trkpt><trkpt lat="44.1200517" lon="12.1676033"><ele>88.0</ele><time>2026-03-29T09:43:58.828Z</time></trkpt><trkpt lat="44.1199817" lon="12.1675167"><ele>88.0</ele><time>2026-03-29T09:44:00.828Z</time></trkpt><trkpt lat="44.1199183" lon="12.1674417"><ele>88.0</ele><time>2026-03-29T09:44:02.829Z</time></trkpt><trkpt lat="44.1198533" lon="12.1673683"><ele>88.0</ele><time>2026-03-29T09:44:04.827Z</time></trkpt><trkpt lat="44.1197867" lon="12.1673017"><ele>88.66666666666666</ele><time>2026-03-29T09:44:06.827Z</time></trkpt><trkpt lat="44.1197183" lon="12.1672333"><ele>89.33333333333333</ele><time>2026-03-29T09:44:08.831Z</time></trkpt><trkpt lat="44.11965" lon="12.1671567"><ele>90.0</ele><time>2026-03-29T09:44:10.831Z</time></trkpt><trkpt lat="44.119585" lon="12.1670933"><ele>90.66666666666667</ele><time>2026-03-29T09:44:12.828Z</time></trkpt><trkpt lat="44.119525" lon="12.167035"><ele>91.33333333333334</ele><time>2026-03-29T09:44:14.83Z</time></trkpt><trkpt lat="44.1194617" lon="12.166995"><ele>92.0</ele><time>2026-03-29T09:44:16.827Z</time></trkpt><trkpt lat="44.11938" lon="12.1669833"><ele>92.0</ele><time>2026-03-29T09:44:19.832Z</time></trkpt><trkpt lat="44.119285" lon="12.1669883"><ele>92.0</ele><time>2026-03-29T09:44:22.829Z</time></trkpt><trkpt lat="44.119215" lon="12.167"><ele>92.0</ele><time>2026-03-29T09:44:24.827Z</time></trkpt><trkpt lat="44.1191183" lon="12.1670033"><ele>92.0</ele><time>2026-03-29T09:44:27.829Z</time></trkpt><trkpt lat="44.1190383" lon="12.1670367"><ele>92.0</ele><time>2026-03-29T09:44:30.829Z</time></trkpt><trkpt lat="44.1189533" lon="12.1670633"><ele>92.0</ele><time>2026-03-29T09:44:33.829Z</time></trkpt><trkpt lat="44.1188717" lon="12.1670817"><ele>93.0</ele><time>2026-03-29T09:44:36.829Z</time></trkpt><trkpt lat="44.1188" lon="12.1671"><ele>94.0</ele><time>2026-03-29T09:44:39.828Z</time></trkpt><trkpt lat="44.1187217" lon="12.1670933"><ele>95.0</ele><time>2026-03-29T09:44:42.83Z</time></trkpt><trkpt lat="44.1186483" lon="12.1670983"><ele>96.0</ele><time>2026-03-29T09:44:45.827Z</time></trkpt><trkpt lat="44.1185767" lon="12.1670967"><ele>97.0</ele><time>2026-03-29T09:44:48.827Z</time></trkpt><trkpt lat="44.1184967" lon="12.1670883"><ele>98.0</ele><time>2026-03-29T09:44:51.831Z</time></trkpt><trkpt lat="44.1184283" lon="12.1670833"><ele>99.0</ele><time>2026-03-29T09:44:54.828Z</time></trkpt><trkpt lat="44.1183583" lon="12.1670867"><ele>99.0</ele><time>2026-03-29T09:44:57.826Z</time></trkpt><trkpt lat="44.1182933" lon="12.1670867"><ele>99.0</ele><time>2026-03-29T09:45:00.829Z</time></trkpt><trkpt lat="44.11821" lon="12.1670767"><ele>99.0</ele><time>2026-03-29T09:45:04.829Z</time></trkpt><trkpt lat="44.1181367" lon="12.16707"><ele>99.0</ele><time>2026-03-29T09:45:07.83Z</time></trkpt><trkpt lat="44.1180683" lon="12.1670467"><ele>99.0</ele><time>2026-03-29T09:45:10.831Z</time></trkpt><trkpt lat="44.1179867" lon="12.1670217"><ele>99.0</ele><time>2026-03-29T09:45:14.828Z</time></trkpt><trkpt lat="44.1179233" lon="12.167005"><ele>99.0</ele><time>2026-03-29T09:45:17.829Z</time></trkpt><trkpt lat="44.1178633" lon="12.1669783"><ele>102.0</ele><time>2026-03-29T09:45:20.83Z</time></trkpt><trkpt lat="44.1177833" lon="12.16697"><ele>105.0</ele><time>2026-03-29T09:45:24.827Z</time></trkpt><trkpt lat="44.1177" lon="12.16696"><ele>108.0</ele><time>2026-03-29T09:45:28.83Z</time></trkpt><trkpt lat="44.1176283" lon="12.1669467"><ele>111.0</ele><time>2026-03-29T09:45:32.829Z</time></trkpt><trkpt lat="44.1175617" lon="12.1669183"><ele>114.0</ele><time>2026-03-29T09:45:36.832Z</time></trkpt><trkpt lat="44.1174883" lon="12.166905"><ele>117.0</ele><time>2026-03-29T09:45:41.83Z</time></trkpt><trkpt lat="44.1174133" lon="12.1669133"><ele>119.0</ele><time>2026-03-29T09:45:45.828Z</time></trkpt><trkpt lat="44.1173467" lon="12.1668917"><ele>121.0</ele><time>2026-03-29T09:45:49.828Z</time></trkpt><trkpt lat="44.1172833" lon="12.16685"><ele>123.0</ele><time>2026-03-29T09:45:54.827Z</time></trkpt><trkpt lat="44.117205" lon="12.1668533"><ele>125.0</ele><time>2026-03-29T09:45:59.827Z</time></trkpt><trkpt lat="44.11713" lon="12.1668233"><ele>127.0</ele><time>2026-03-29T09:46:03.829Z</time></trkpt><trkpt lat="44.117055" lon="12.1668017"><ele>129.0</ele><time>2026-03-29T09:46:07.827Z</time></trkpt><trkpt lat="44.116985" lon="12.1667417"><ele>128.99999999999997</ele><time>2026-03-29T09:46:11.827Z</time></trkpt><trkpt lat="44.11692" lon="12.1666817"><ele>129.0</ele><time>2026-03-29T09:46:14.827Z</time></trkpt><trkpt lat="44.116865" lon="12.1666217"><ele>129.0</ele><time>2026-03-29T09:46:17.827Z</time></trkpt><trkpt lat="44.1168083" lon="12.16656"><ele>129.0</ele><time>2026-03-29T09:46:20.828Z</time></trkpt><trkpt lat="44.1167467" lon="12.1664917"><ele>129.0</ele><time>2026-03-29T09:46:23.828Z</time></trkpt><trkpt lat="44.11669" lon="12.1664267"><ele>128.99999999999997</ele><time>2026-03-29T09:46:26.828Z</time></trkpt><trkpt lat="44.116635" lon="12.166355"><ele>129.0</ele><time>2026-03-29T09:46:29.83Z</time></trkpt><trkpt lat="44.1166033" lon="12.166235"><ele>130.33333333333334</ele><time>2026-03-29T09:46:32.828Z</time></trkpt><trkpt lat="44.11665" lon="12.1661217"><ele>131.66666666666666</ele><time>2026-03-29T09:46:35.828Z</time></trkpt><trkpt lat="44.116725" lon="12.1660433"><ele>133.0</ele><time>2026-03-29T09:46:38.834Z</time></trkpt><trkpt lat="44.1168017" lon="12.165975"><ele>134.33333333333331</ele><time>2026-03-29T09:46:41.829Z</time></trkpt><trkpt lat="44.1168567" lon="12.165915"><ele>135.66666666666666</ele><time>2026-03-29T09:46:43.827Z</time></trkpt><trkpt lat="44.1169167" lon="12.1658167"><ele>137.0</ele><time>2026-03-29T09:46:46.828Z</time></trkpt><trkpt lat="44.11695" lon="12.1656983"><ele>137.5</ele><time>2026-03-29T09:46:49.828Z</time></trkpt><trkpt lat="44.1169583" lon="12.1655733"><ele>138.0</ele><time>2026-03-29T09:46:52.832Z</time></trkpt><trkpt lat="44.11694" lon="12.1654633"><ele>138.5</ele><time>2026-03-29T09:46:55.83Z</time></trkpt><trkpt lat="44.1169217" lon="12.165345"><ele>139.0</ele><time>2026-03-29T09:46:58.833Z</time></trkpt><trkpt lat="44.1168833" lon="12.1652383"><ele>139.5</ele><time>2026-03-29T09:47:01.829Z</time></trkpt><trkpt lat="44.1168433" lon="12.1651433"><ele>140.0</ele><time>2026-03-29T09:47:04.83Z</time></trkpt><trkpt lat="44.1167883" lon="12.1650667"><ele>140.0</ele><time>2026-03-29T09:47:07.829Z</time></trkpt><trkpt lat="44.1167217" lon="12.1650067"><ele>140.0</ele><time>2026-03-29T09:47:10.829Z</time></trkpt><trkpt lat="44.1166533" lon="12.1649883"><ele>140.0</ele><time>2026-03-29T09:47:13.832Z</time></trkpt><trkpt lat="44.1165733" lon="12.1650083"><ele>140.0</ele><time>2026-03-29T09:47:17.83Z</time></trkpt><trkpt lat="44.1165117" lon="12.1650517"><ele>140.0</ele><time>2026-03-29T09:47:21.832Z</time></trkpt><trkpt lat="44.1164533" lon="12.1650883"><ele>140.0</ele><time>2026-03-29T09:47:24.828Z</time></trkpt><trkpt lat="44.1163783" lon="12.1651217"><ele>140.0</ele><time>2026-03-29T09:47:27.827Z</time></trkpt><trkpt lat="44.1163067" lon="12.16516"><ele>141.85714285714286</ele><time>2026-03-29T09:47:31.83Z</time></trkpt><trkpt lat="44.116245" lon="12.165195"><ele>143.71428571428572</ele><time>2026-03-29T09:47:34.827Z</time></trkpt><trkpt lat="44.116175" lon="12.16524"><ele>145.57142857142856</ele><time>2026-03-29T09:47:38.828Z</time></trkpt><trkpt lat="44.116145" lon="12.16534"><ele>147.42857142857144</ele><time>2026-03-29T09:47:42.828Z</time></trkpt><trkpt lat="44.116145" lon="12.1654283"><ele>149.28571428571428</ele><time>2026-03-29T09:47:45.827Z</time></trkpt><trkpt lat="44.1160817" lon="12.1654833"><ele>151.14285714285714</ele><time>2026-03-29T09:47:49.826Z</time></trkpt><trkpt lat="44.1160183" lon="12.1654683"><ele>153.0</ele><time>2026-03-29T09:47:52.827Z</time></trkpt><trkpt lat="44.115955" lon="12.1654467"><ele>153.0</ele><time>2026-03-29T09:47:55.829Z</time></trkpt><trkpt lat="44.1158833" lon="12.1654317"><ele>153.0</ele><time>2026-03-29T09:47:58.826Z</time></trkpt><trkpt lat="44.115815" lon="12.1654083"><ele>153.0</ele><time>2026-03-29T09:48:01.828Z</time></trkpt><trkpt lat="44.1157467" lon="12.1653933"><ele>153.0</ele><time>2026-03-29T09:48:04.829Z</time></trkpt><trkpt lat="44.11568" lon="12.165385"><ele>153.0</ele><time>2026-03-29T09:48:07.826Z</time></trkpt><trkpt lat="44.1156117" lon="12.16537"><ele>153.0</ele><time>2026-03-29T09:48:10.827Z</time></trkpt><trkpt lat="44.1155417" lon="12.1653583"><ele>153.0</ele><time>2026-03-29T09:48:13.829Z</time></trkpt><trkpt lat="44.115475" lon="12.1654133"><ele>156.0</ele><time>2026-03-29T09:48:17.827Z</time></trkpt><trkpt lat="44.1154283" lon="12.1654933"><ele>159.0</ele><time>2026-03-29T09:48:21.829Z</time></trkpt><trkpt lat="44.1153967" lon="12.1655733"><ele>162.0</ele><time>2026-03-29T09:48:24.829Z</time></trkpt><trkpt lat="44.1153617" lon="12.165655"><ele>165.0</ele><time>2026-03-29T09:48:27.83Z</time></trkpt><trkpt lat="44.1153217" lon="12.16575"><ele>168.0</ele><time>2026-03-29T09:48:30.829Z</time></trkpt><trkpt lat="44.115305" lon="12.16586"><ele>171.0</ele><time>2026-03-29T09:48:33.829Z</time></trkpt><trkpt lat="44.115305" lon="12.1659683"><ele>174.0</ele><time>2026-03-29T09:48:36.829Z</time></trkpt><trkpt lat="44.11531" lon="12.16608"><ele>174.0</ele><time>2026-03-29T09:48:39.829Z</time></trkpt><trkpt lat="44.115285" lon="12.1661983"><ele>174.0</ele><time>2026-03-29T09:48:42.83Z</time></trkpt><trkpt lat="44.11525" lon="12.1663183"><ele>174.0</ele><time>2026-03-29T09:48:45.827Z</time></trkpt><trkpt lat="44.11522" lon="12.1664067"><ele>174.0</ele><time>2026-03-29T09:48:47.829Z</time></trkpt><trkpt lat="44.1151833" lon="12.1664883"><ele>174.0</ele><time>2026-03-29T09:48:49.828Z</time></trkpt><trkpt lat="44.11513" lon="12.1665817"><ele>174.0</ele><time>2026-03-29T09:48:52.827Z</time></trkpt><trkpt lat="44.115085" lon="12.1666467"><ele>174.0</ele><time>2026-03-29T09:48:54.829Z</time></trkpt><trkpt lat="44.1150433" lon="12.1667183"><ele>174.0</ele><time>2026-03-29T09:48:56.83Z</time></trkpt><trkpt lat="44.1150067" lon="12.16679"><ele>174.0</ele><time>2026-03-29T09:48:58.83Z</time></trkpt><trkpt lat="44.1149717" lon="12.166875"><ele>174.0</ele><time>2026-03-29T09:49:00.829Z</time></trkpt><trkpt lat="44.114935" lon="12.1669933"><ele>174.0</ele><time>2026-03-29T09:49:02.829Z</time></trkpt><trkpt lat="44.1149183" lon="12.1671233"><ele>174.0</ele><time>2026-03-29T09:49:04.829Z</time></trkpt><trkpt lat="44.1149217" lon="12.16724"><ele>174.0</ele><time>2026-03-29T09:49:06.828Z</time></trkpt><trkpt lat="44.114935" lon="12.1673533"><ele>174.0</ele><time>2026-03-29T09:49:08.832Z</time></trkpt><trkpt lat="44.1149667" lon="12.167465"><ele>174.0</ele><time>2026-03-29T09:49:10.829Z</time></trkpt><trkpt lat="44.115015" lon="12.1675867"><ele>174.0</ele><time>2026-03-29T09:49:12.827Z</time></trkpt><trkpt lat="44.1150583" lon="12.1676917"><ele>174.0</ele><time>2026-03-29T09:49:14.829Z</time></trkpt><trkpt lat="44.115125" lon="12.167785"><ele>174.66666666666666</ele><time>2026-03-29T09:49:16.827Z</time></trkpt><trkpt lat="44.1151783" lon="12.167865"><ele>175.33333333333334</ele><time>2026-03-29T09:49:18.828Z</time></trkpt><trkpt lat="44.1152317" lon="12.167945"><ele>176.0</ele><time>2026-03-29T09:49:20.828Z</time></trkpt><trkpt lat="44.1152783" lon="12.1680167"><ele>176.66666666666669</ele><time>2026-03-29T09:49:22.83Z</time></trkpt><trkpt lat="44.115335" lon="12.1680883"><ele>177.33333333333334</ele><time>2026-03-29T09:49:24.828Z</time></trkpt><trkpt lat="44.1154" lon="12.168165"><ele>178.0</ele><time>2026-03-29T09:49:26.83Z</time></trkpt><trkpt lat="44.1154717" lon="12.1682317"><ele>177.33333333333334</ele><time>2026-03-29T09:49:28.828Z</time></trkpt><trkpt lat="44.1155333" lon="12.168305"><ele>176.66666666666669</ele><time>2026-03-29T09:49:30.828Z</time></trkpt><trkpt lat="44.1155883" lon="12.1683717"><ele>176.0</ele><time>2026-03-29T09:49:32.829Z</time></trkpt><trkpt lat="44.1156367" lon="12.168445"><ele>175.33333333333334</ele><time>2026-03-29T09:49:34.83Z</time></trkpt><trkpt lat="44.1156933" lon="12.1685183"><ele>174.66666666666666</ele><time>2026-03-29T09:49:36.828Z</time></trkpt><trkpt lat="44.115755" lon="12.1686"><ele>174.0</ele><time>2026-03-29T09:49:38.827Z</time></trkpt><trkpt lat="44.1158133" lon="12.1686683"><ele>174.0</ele><time>2026-03-29T09:49:40.829Z</time></trkpt><trkpt lat="44.1158517" lon="12.1687483"><ele>174.0</ele><time>2026-03-29T09:49:42.829Z</time></trkpt><trkpt lat="44.115855" lon="12.1688667"><ele>174.0</ele><time>2026-03-29T09:49:45.826Z</time></trkpt><trkpt lat="44.1157933" lon="12.1689283"><ele>174.0</ele><time>2026-03-29T09:49:49.827Z</time></trkpt><trkpt lat="44.115745" lon="12.1688583"><ele>174.0</ele><time>2026-03-29T09:49:52.829Z</time></trkpt><trkpt lat="44.11569" lon="12.168795"><ele>174.0</ele><time>2026-03-29T09:49:55.832Z</time></trkpt><trkpt lat="44.11563" lon="12.16875"><ele>174.0</ele><time>2026-03-29T09:49:57.828Z</time></trkpt><trkpt lat="44.1155533" lon="12.1687217"><ele>176.66666666666666</ele><time>2026-03-29T09:50:00.831Z</time></trkpt><trkpt lat="44.1154817" lon="12.1687033"><ele>179.33333333333334</ele><time>2026-03-29T09:50:03.828Z</time></trkpt><trkpt lat="44.1154033" lon="12.1686717"><ele>182.0</ele><time>2026-03-29T09:50:06.83Z</time></trkpt><trkpt lat="44.1153183" lon="12.1686717"><ele>184.66666666666669</ele><time>2026-03-29T09:50:09.829Z</time></trkpt><trkpt lat="44.115245" lon="12.1686717"><ele>187.33333333333334</ele><time>2026-03-29T09:50:12.828Z</time></trkpt><trkpt lat="44.1151767" lon="12.1686917"><ele>190.0</ele><time>2026-03-29T09:50:15.827Z</time></trkpt><trkpt lat="44.11511" lon="12.1687117"><ele>190.0</ele><time>2026-03-29T09:50:18.827Z</time></trkpt><trkpt lat="44.1150367" lon="12.1687483"><ele>190.0</ele><time>2026-03-29T09:50:21.828Z</time></trkpt><trkpt lat="44.114965" lon="12.168735"><ele>190.0</ele><time>2026-03-29T09:50:24.826Z</time></trkpt><trkpt lat="44.1149017" lon="12.1687067"><ele>190.0</ele><time>2026-03-29T09:50:28.829Z</time></trkpt><trkpt lat="44.114835" lon="12.168695"><ele>190.0</ele><time>2026-03-29T09:51:45.828Z</time></trkpt><trkpt lat="44.1147767" lon="12.1686617"><ele>190.0</ele><time>2026-03-29T09:51:48.828Z</time></trkpt><trkpt lat="44.114705" lon="12.1686217"><ele>190.0</ele><time>2026-03-29T09:51:51.828Z</time></trkpt><trkpt lat="44.1146183" lon="12.16858"><ele>193.0</ele><time>2026-03-29T09:51:54.834Z</time></trkpt><trkpt lat="44.1145467" lon="12.1685467"><ele>196.0</ele><time>2026-03-29T09:51:56.829Z</time></trkpt><trkpt lat="44.114475" lon="12.1684767"><ele>199.0</ele><time>2026-03-29T09:51:59.828Z</time></trkpt><trkpt lat="44.114385" lon="12.168445"><ele>202.0</ele><time>2026-03-29T09:52:02.831Z</time></trkpt><trkpt lat="44.1143233" lon="12.1684083"><ele>204.99999999999997</ele><time>2026-03-29T09:52:04.828Z</time></trkpt><trkpt lat="44.1142633" lon="12.1683683"><ele>208.0</ele><time>2026-03-29T09:52:06.827Z</time></trkpt><trkpt lat="44.114205" lon="12.16833"><ele>207.99999999999997</ele><time>2026-03-29T09:52:08.829Z</time></trkpt><trkpt lat="44.114125" lon="12.1682783"><ele>208.0</ele><time>2026-03-29T09:52:11.83Z</time></trkpt><trkpt lat="44.1140567" lon="12.1682233"><ele>208.0</ele><time>2026-03-29T09:52:14.83Z</time></trkpt><trkpt lat="44.113975" lon="12.1681867"><ele>208.0</ele><time>2026-03-29T09:52:17.831Z</time></trkpt><trkpt lat="44.1138883" lon="12.16816"><ele>207.99999999999997</ele><time>2026-03-29T09:52:20.834Z</time></trkpt><trkpt lat="44.1138217" lon="12.1681217"><ele>208.0</ele><time>2026-03-29T09:52:23.829Z</time></trkpt><trkpt lat="44.1137417" lon="12.168065"><ele>208.83333333333331</ele><time>2026-03-29T09:52:26.83Z</time></trkpt><trkpt lat="44.1136683" lon="12.1680017"><ele>209.66666666666666</ele><time>2026-03-29T09:52:29.827Z</time></trkpt><trkpt lat="44.1136" lon="12.1679533"><ele>210.5</ele><time>2026-03-29T09:52:32.829Z</time></trkpt><trkpt lat="44.1135383" lon="12.1679233"><ele>211.33333333333331</ele><time>2026-03-29T09:52:35.828Z</time></trkpt><trkpt lat="44.1134217" lon="12.167895"><ele>212.16666666666666</ele><time>2026-03-29T09:53:01.828Z</time></trkpt><trkpt lat="44.11342" lon="12.167795"><ele>213.0</ele><time>2026-03-29T09:53:04.828Z</time></trkpt><trkpt lat="44.1134083" lon="12.1676983"><ele>212.99999999999997</ele><time>2026-03-29T09:53:06.828Z</time></trkpt><trkpt lat="44.1133967" lon="12.1676"><ele>213.0</ele><time>2026-03-29T09:53:08.829Z</time></trkpt><trkpt lat="44.1133717" lon="12.1675067"><ele>213.0</ele><time>2026-03-29T09:53:10.829Z</time></trkpt><trkpt lat="44.1133383" lon="12.167415"><ele>213.0</ele><time>2026-03-29T09:53:12.828Z</time></trkpt><trkpt lat="44.1132983" lon="12.167335"><ele>213.0</ele><time>2026-03-29T09:53:14.831Z</time></trkpt><trkpt lat="44.1132567" lon="12.1672617"><ele>212.99999999999997</ele><time>2026-03-29T09:53:16.832Z</time></trkpt><trkpt lat="44.1132117" lon="12.1671917"><ele>213.0</ele><time>2026-03-29T09:53:18.829Z</time></trkpt><trkpt lat="44.1131567" lon="12.16709"><ele>213.28571428571428</ele><time>2026-03-29T09:53:21.829Z</time></trkpt><trkpt lat="44.1131033" lon="12.1670017"><ele>213.57142857142856</ele><time>2026-03-29T09:53:24.829Z</time></trkpt><trkpt lat="44.1130633" lon="12.1669317"><ele>213.85714285714283</ele><time>2026-03-29T09:53:26.828Z</time></trkpt><trkpt lat="44.113015" lon="12.1668617"><ele>214.14285714285714</ele><time>2026-03-29T09:53:28.831Z</time></trkpt><trkpt lat="44.112965" lon="12.1667483"><ele>214.42857142857144</ele><time>2026-03-29T09:53:31.829Z</time></trkpt><trkpt lat="44.1129317" lon="12.1666733"><ele>214.7142857142857</ele><time>2026-03-29T09:53:33.829Z</time></trkpt><trkpt lat="44.1128933" lon="12.1665967"><ele>215.0</ele><time>2026-03-29T09:53:35.83Z</time></trkpt><trkpt lat="44.1128533" lon="12.16652"><ele>215.0</ele><time>2026-03-29T09:53:37.83Z</time></trkpt><trkpt lat="44.1128117" lon="12.1664417"><ele>215.0</ele><time>2026-03-29T09:53:39.829Z</time></trkpt><trkpt lat="44.1127717" lon="12.1663633"><ele>215.0</ele><time>2026-03-29T09:53:41.834Z</time></trkpt><trkpt lat="44.1127383" lon="12.166285"><ele>215.0</ele><time>2026-03-29T09:53:43.832Z</time></trkpt><trkpt lat="44.1127083" lon="12.1662017"><ele>215.0</ele><time>2026-03-29T09:53:45.829Z</time></trkpt><trkpt lat="44.112685" lon="12.16612"><ele>215.0</ele><time>2026-03-29T09:53:47.83Z</time></trkpt><trkpt lat="44.1126567" lon="12.1660283"><ele>215.0</ele><time>2026-03-29T09:53:56.829Z</time></trkpt><trkpt lat="44.1126167" lon="12.16595"><ele>215.0</ele><time>2026-03-29T09:54:45.83Z</time></trkpt><trkpt lat="44.1125933" lon="12.1658683"><ele>215.0</ele><time>2026-03-29T09:54:48.828Z</time></trkpt><trkpt lat="44.11258" lon="12.1657783"><ele>215.0</ele><time>2026-03-29T09:54:52.827Z</time></trkpt><trkpt lat="44.11251" lon="12.1657483"><ele>215.0</ele><time>2026-03-29T09:54:56.828Z</time></trkpt><trkpt lat="44.1124333" lon="12.1657517"><ele>215.0</ele><time>2026-03-29T09:55:01.828Z</time></trkpt><trkpt lat="44.1123683" lon="12.165715"><ele>215.0</ele><time>2026-03-29T09:55:04.829Z</time></trkpt><trkpt lat="44.1122817" lon="12.1656833"><ele>215.0</ele><time>2026-03-29T09:55:07.829Z</time></trkpt><trkpt lat="44.1122167" lon="12.16569"><ele>212.33333333333334</ele><time>2026-03-29T09:55:09.828Z</time></trkpt><trkpt lat="44.1121517" lon="12.16571"><ele>209.66666666666669</ele><time>2026-03-29T09:55:11.829Z</time></trkpt><trkpt lat="44.1120633" lon="12.1657217"><ele>207.0</ele><time>2026-03-29T09:55:14.828Z</time></trkpt><trkpt lat="44.1119833" lon="12.1657167"><ele>204.33333333333331</ele><time>2026-03-29T09:55:17.828Z</time></trkpt><trkpt lat="44.111895" lon="12.16572"><ele>201.66666666666666</ele><time>2026-03-29T09:55:20.828Z</time></trkpt><trkpt lat="44.111825" lon="12.1657317"><ele>199.0</ele><time>2026-03-29T09:55:22.826Z</time></trkpt><trkpt lat="44.1117583" lon="12.1657383"><ele>198.99999999999997</ele><time>2026-03-29T09:55:24.827Z</time></trkpt><trkpt lat="44.1116667" lon="12.16575"><ele>199.0</ele><time>2026-03-29T09:55:27.829Z</time></trkpt><trkpt lat="44.111585" lon="12.1657783"><ele>199.0</ele><time>2026-03-29T09:55:30.83Z</time></trkpt><trkpt lat="44.1115033" lon="12.1658117"><ele>199.0</ele><time>2026-03-29T09:55:33.828Z</time></trkpt><trkpt lat="44.1114217" lon="12.165835"><ele>198.99999999999997</ele><time>2026-03-29T09:55:36.828Z</time></trkpt><trkpt lat="44.11135" lon="12.1658467"><ele>199.0</ele><time>2026-03-29T09:55:39.829Z</time></trkpt><trkpt lat="44.111275" lon="12.1658617"><ele>196.28571428571428</ele><time>2026-03-29T09:55:42.829Z</time></trkpt><trkpt lat="44.1112117" lon="12.1658833"><ele>193.57142857142856</ele><time>2026-03-29T09:55:45.827Z</time></trkpt><trkpt lat="44.1111433" lon="12.1658817"><ele>190.85714285714283</ele><time>2026-03-29T09:55:49.828Z</time></trkpt><trkpt lat="44.11106" lon="12.1658767"><ele>188.14285714285714</ele><time>2026-03-29T09:55:53.828Z</time></trkpt><trkpt lat="44.11099" lon="12.1658733"><ele>185.42857142857144</ele><time>2026-03-29T09:55:56.836Z</time></trkpt><trkpt lat="44.1109233" lon="12.1658833"><ele>182.7142857142857</ele><time>2026-03-29T09:55:59.827Z</time></trkpt><trkpt lat="44.1108567" lon="12.1659133"><ele>180.0</ele><time>2026-03-29T09:56:02.828Z</time></trkpt><trkpt lat="44.1107867" lon="12.1659333"><ele>177.85714285714286</ele><time>2026-03-29T09:56:05.827Z</time></trkpt><trkpt lat="44.1107217" lon="12.165925"><ele>175.71428571428572</ele><time>2026-03-29T09:56:08.828Z</time></trkpt><trkpt lat="44.1106483" lon="12.1659133"><ele>173.57142857142858</ele><time>2026-03-29T09:56:11.828Z</time></trkpt><trkpt lat="44.110565" lon="12.1658917"><ele>171.42857142857144</ele><time>2026-03-29T09:56:14.833Z</time></trkpt><trkpt lat="44.110495" lon="12.1658767"><ele>169.28571428571428</ele><time>2026-03-29T09:56:17.828Z</time></trkpt><trkpt lat="44.110425" lon="12.1658583"><ele>167.14285714285717</ele><time>2026-03-29T09:56:21.826Z</time></trkpt><trkpt lat="44.110345" lon="12.1658333"><ele>165.0</ele><time>2026-03-29T09:56:25.829Z</time></trkpt><trkpt lat="44.1102633" lon="12.1657967"><ele>165.0</ele><time>2026-03-29T09:56:28.829Z</time></trkpt><trkpt lat="44.1101933" lon="12.1657567"><ele>165.0</ele><time>2026-03-29T09:56:31.829Z</time></trkpt><trkpt lat="44.110125" lon="12.1657517"><ele>165.0</ele><time>2026-03-29T09:56:34.827Z</time></trkpt><trkpt lat="44.1101117" lon="12.1658517"><ele>165.0</ele><time>2026-03-29T09:56:39.829Z</time></trkpt><trkpt lat="44.1101767" lon="12.16593"><ele>165.0</ele><time>2026-03-29T09:56:43.828Z</time></trkpt><trkpt lat="44.1102467" lon="12.1659933"><ele>165.0</ele><time>2026-03-29T09:56:46.831Z</time></trkpt><trkpt lat="44.1103" lon="12.1660433"><ele>165.0</ele><time>2026-03-29T09:56:48.831Z</time></trkpt><trkpt lat="44.11035" lon="12.1661483"><ele>165.0</ele><time>2026-03-29T09:56:52.827Z</time></trkpt><trkpt lat="44.11041" lon="12.1662317"><ele>165.0</ele><time>2026-03-29T09:56:55.829Z</time></trkpt><trkpt lat="44.110475" lon="12.1662917"><ele>165.0</ele><time>2026-03-29T09:56:58.829Z</time></trkpt><trkpt lat="44.1105383" lon="12.16637"><ele>165.0</ele><time>2026-03-29T09:57:02.827Z</time></trkpt><trkpt lat="44.110605" lon="12.166445"><ele>165.0</ele><time>2026-03-29T09:57:08.827Z</time></trkpt><trkpt lat="44.1106617" lon="12.1665017"><ele>165.85714285714286</ele><time>2026-03-29T09:57:12.827Z</time></trkpt><trkpt lat="44.1107317" lon="12.1665533"><ele>166.71428571428572</ele><time>2026-03-29T09:57:16.826Z</time></trkpt><trkpt lat="44.11079" lon="12.1666067"><ele>167.57142857142856</ele><time>2026-03-29T09:57:19.827Z</time></trkpt><trkpt lat="44.1108567" lon="12.16665"><ele>168.42857142857144</ele><time>2026-03-29T09:57:22.827Z</time></trkpt><trkpt lat="44.1109183" lon="12.166675"><ele>169.28571428571428</ele><time>2026-03-29T09:57:25.826Z</time></trkpt><trkpt lat="44.1109833" lon="12.1667267"><ele>170.14285714285714</ele><time>2026-03-29T09:57:28.827Z</time></trkpt><trkpt lat="44.11104" lon="12.16679"><ele>171.0</ele><time>2026-03-29T09:57:32.828Z</time></trkpt><trkpt lat="44.1110967" lon="12.1668583"><ele>171.0</ele><time>2026-03-29T09:57:35.829Z</time></trkpt><trkpt lat="44.111155" lon="12.166935"><ele>171.0</ele><time>2026-03-29T09:57:38.827Z</time></trkpt><trkpt lat="44.111205" lon="12.1669983"><ele>171.0</ele><time>2026-03-29T09:57:40.827Z</time></trkpt><trkpt lat="44.1112617" lon="12.1670583"><ele>171.0</ele><time>2026-03-29T09:57:42.829Z</time></trkpt><trkpt lat="44.111315" lon="12.1671217"><ele>171.0</ele><time>2026-03-29T09:57:44.829Z</time></trkpt><trkpt lat="44.11137" lon="12.167225"><ele>171.0</ele><time>2026-03-29T09:57:47.827Z</time></trkpt><trkpt lat="44.1114133" lon="12.1673433"><ele>169.0</ele><time>2026-03-29T09:57:50.831Z</time></trkpt><trkpt lat="44.1114367" lon="12.1674333"><ele>167.0</ele><time>2026-03-29T09:57:52.827Z</time></trkpt><trkpt lat="44.1114483" lon="12.1675417"><ele>165.0</ele><time>2026-03-29T09:57:55.833Z</time></trkpt><trkpt lat="44.11145" lon="12.1676483"><ele>163.0</ele><time>2026-03-29T09:57:57.828Z</time></trkpt><trkpt lat="44.11141" lon="12.1677617"><ele>161.0</ele><time>2026-03-29T09:58:00.828Z</time></trkpt><trkpt lat="44.111355" lon="12.1678533"><ele>159.0</ele><time>2026-03-29T09:58:03.828Z</time></trkpt><trkpt lat="44.1112983" lon="12.1679383"><ele>159.0</ele><time>2026-03-29T09:58:06.83Z</time></trkpt><trkpt lat="44.1112267" lon="12.1679983"><ele>159.0</ele><time>2026-03-29T09:58:09.828Z</time></trkpt><trkpt lat="44.1111433" lon="12.16801"><ele>159.0</ele><time>2026-03-29T09:58:12.828Z</time></trkpt><trkpt lat="44.111055" lon="12.1680117"><ele>159.0</ele><time>2026-03-29T09:58:15.828Z</time></trkpt><trkpt lat="44.11097" lon="12.1680017"><ele>159.0</ele><time>2026-03-29T09:58:18.83Z</time></trkpt><trkpt lat="44.1109033" lon="12.16798"><ele>159.0</ele><time>2026-03-29T09:58:21.827Z</time></trkpt><trkpt lat="44.1108433" lon="12.167945"><ele>159.0</ele><time>2026-03-29T09:58:24.828Z</time></trkpt><trkpt lat="44.1107717" lon="12.1678983"><ele>159.0</ele><time>2026-03-29T09:58:27.83Z</time></trkpt><trkpt lat="44.110705" lon="12.16787"><ele>159.0</ele><time>2026-03-29T09:58:30.828Z</time></trkpt><trkpt lat="44.110635" lon="12.1678533"><ele>159.0</ele><time>2026-03-29T09:58:34.829Z</time></trkpt><trkpt lat="44.11057" lon="12.167845"><ele>159.0</ele><time>2026-03-29T09:58:37.828Z</time></trkpt><trkpt lat="44.110505" lon="12.16786"><ele>159.0</ele><time>2026-03-29T09:58:39.828Z</time></trkpt><trkpt lat="44.110415" lon="12.167885"><ele>159.0</ele><time>2026-03-29T09:58:42.827Z</time></trkpt><trkpt lat="44.1103333" lon="12.167895"><ele>158.5</ele><time>2026-03-29T09:58:45.826Z</time></trkpt><trkpt lat="44.1102633" lon="12.1679"><ele>158.0</ele><time>2026-03-29T09:58:48.831Z</time></trkpt><trkpt lat="44.1101917" lon="12.16792"><ele>157.5</ele><time>2026-03-29T09:58:52.83Z</time></trkpt><trkpt lat="44.1101" lon="12.1679717"><ele>157.0</ele><time>2026-03-29T09:59:11.83Z</time></trkpt><trkpt lat="44.1100067" lon="12.168085"><ele>156.5</ele><time>2026-03-29T10:00:02.829Z</time></trkpt><trkpt lat="44.1100133" lon="12.168175"><ele>156.0</ele><time>2026-03-29T10:00:27.828Z</time></trkpt><trkpt lat="44.1100417" lon="12.1683217"><ele>156.0</ele><time>2026-03-29T10:00:33.829Z</time></trkpt><trkpt lat="44.110055" lon="12.1684083"><ele>156.0</ele><time>2026-03-29T10:00:36.828Z</time></trkpt><trkpt lat="44.1100667" lon="12.16851"><ele>156.0</ele><time>2026-03-29T10:00:39.829Z</time></trkpt><trkpt lat="44.11005" lon="12.1686183"><ele>156.0</ele><time>2026-03-29T10:00:42.829Z</time></trkpt><trkpt lat="44.11003" lon="12.16871"><ele>156.0</ele><time>2026-03-29T10:00:45.826Z</time></trkpt><trkpt lat="44.11" lon="12.1688117"><ele>156.0</ele><time>2026-03-29T10:01:01.829Z</time></trkpt><trkpt lat="44.1099267" lon="12.1688733"><ele>155.83333333333334</ele><time>2026-03-29T10:01:04.827Z</time></trkpt><trkpt lat="44.10986" lon="12.168925"><ele>155.66666666666666</ele><time>2026-03-29T10:01:06.828Z</time></trkpt><trkpt lat="44.1098317" lon="12.1690317"><ele>155.5</ele><time>2026-03-29T10:01:08.829Z</time></trkpt><trkpt lat="44.1098417" lon="12.16913"><ele>155.33333333333331</ele><time>2026-03-29T10:01:10.828Z</time></trkpt><trkpt lat="44.1098817" lon="12.1692367"><ele>155.16666666666666</ele><time>2026-03-29T10:01:13.829Z</time></trkpt><trkpt lat="44.1099283" lon="12.169335"><ele>155.0</ele><time>2026-03-29T10:01:16.828Z</time></trkpt><trkpt lat="44.1099633" lon="12.169435"><ele>155.0</ele><time>2026-03-29T10:01:19.828Z</time></trkpt><trkpt lat="44.110005" lon="12.1695217"><ele>155.0</ele><time>2026-03-29T10:01:22.829Z</time></trkpt><trkpt lat="44.1100167" lon="12.1696267"><ele>155.0</ele><time>2026-03-29T10:01:26.83Z</time></trkpt><trkpt lat="44.109995" lon="12.1695117"><ele>155.0</ele><time>2026-03-29T10:01:46.826Z</time></trkpt><trkpt lat="44.1099767" lon="12.1694083"><ele>155.0</ele><time>2026-03-29T10:01:48.829Z</time></trkpt><trkpt lat="44.10993" lon="12.169285"><ele>155.0</ele><time>2026-03-29T10:01:50.832Z</time></trkpt><trkpt lat="44.1098867" lon="12.1691617"><ele>155.0</ele><time>2026-03-29T10:01:52.826Z</time></trkpt><trkpt lat="44.1098533" lon="12.1690633"><ele>155.0</ele><time>2026-03-29T10:01:54.827Z</time></trkpt><trkpt lat="44.10985" lon="12.1689717"><ele>155.0</ele><time>2026-03-29T10:01:56.828Z</time></trkpt><trkpt lat="44.1098867" lon="12.1688933"><ele>155.0</ele><time>2026-03-29T10:01:58.829Z</time></trkpt><trkpt lat="44.1099483" lon="12.1688317"><ele>155.0</ele><time>2026-03-29T10:02:01.828Z</time></trkpt><trkpt lat="44.1098867" lon="12.1688767"><ele>155.0</ele><time>2026-03-29T10:02:42.827Z</time></trkpt><trkpt lat="44.10984" lon="12.1689667"><ele>155.0</ele><time>2026-03-29T10:02:45.827Z</time></trkpt><trkpt lat="44.1098517" lon="12.1690883"><ele>155.0</ele><time>2026-03-29T10:02:48.828Z</time></trkpt><trkpt lat="44.1098867" lon="12.1692017"><ele>155.0</ele><time>2026-03-29T10:02:51.826Z</time></trkpt><trkpt lat="44.109925" lon="12.1693217"><ele>155.0</ele><time>2026-03-29T10:02:54.829Z</time></trkpt><trkpt lat="44.1099767" lon="12.1694267"><ele>155.0</ele><time>2026-03-29T10:02:57.827Z</time></trkpt><trkpt lat="44.11002" lon="12.1695317"><ele>155.0</ele><time>2026-03-29T10:03:00.829Z</time></trkpt><trkpt lat="44.1100167" lon="12.1696383"><ele>155.0</ele><time>2026-03-29T10:03:03.829Z</time></trkpt><trkpt lat="44.109905" lon="12.1696817"><ele>155.0</ele><time>2026-03-29T10:07:46.829Z</time></trkpt><trkpt lat="44.10984" lon="12.1696633"><ele>155.0</ele><time>2026-03-29T10:07:48.828Z</time></trkpt><trkpt lat="44.1097617" lon="12.1696267"><ele>155.0</ele><time>2026-03-29T10:07:50.828Z</time></trkpt><trkpt lat="44.1096683" lon="12.1695833"><ele>155.0</ele><time>2026-03-29T10:07:52.827Z</time></trkpt><trkpt lat="44.1095683" lon="12.1695417"><ele>155.0</ele><time>2026-03-29T10:07:54.827Z</time></trkpt><trkpt lat="44.1094583" lon="12.1695017"><ele>155.0</ele><time>2026-03-29T10:07:56.828Z</time></trkpt><trkpt lat="44.10935" lon="12.1694617"><ele>155.0</ele><time>2026-03-29T10:07:58.829Z</time></trkpt><trkpt lat="44.109245" lon="12.1694383"><ele>155.0</ele><time>2026-03-29T10:08:00.828Z</time></trkpt><trkpt lat="44.1091467" lon="12.1694167"><ele>155.0</ele><time>2026-03-29T10:08:02.827Z</time></trkpt><trkpt lat="44.109055" lon="12.1693967"><ele>155.0</ele><time>2026-03-29T10:08:04.827Z</time></trkpt><trkpt lat="44.1089667" lon="12.1693867"><ele>153.0</ele><time>2026-03-29T10:08:06.827Z</time></trkpt><trkpt lat="44.10888" lon="12.1693917"><ele>151.0</ele><time>2026-03-29T10:08:08.832Z</time></trkpt><trkpt lat="44.108785" lon="12.16941"><ele>149.0</ele><time>2026-03-29T10:08:10.828Z</time></trkpt><trkpt lat="44.1086733" lon="12.1694417"><ele>147.0</ele><time>2026-03-29T10:08:12.834Z</time></trkpt><trkpt lat="44.1085583" lon="12.1694867"><ele>145.0</ele><time>2026-03-29T10:08:14.831Z</time></trkpt><trkpt lat="44.10844" lon="12.1695317"><ele>145.0</ele><time>2026-03-29T10:08:16.829Z</time></trkpt><trkpt lat="44.1083233" lon="12.1695717"><ele>145.0</ele><time>2026-03-29T10:08:18.827Z</time></trkpt><trkpt lat="44.1082133" lon="12.1696233"><ele>145.0</ele><time>2026-03-29T10:08:20.831Z</time></trkpt><trkpt lat="44.10811" lon="12.16966"><ele>145.0</ele><time>2026-03-29T10:08:22.83Z</time></trkpt><trkpt lat="44.1080183" lon="12.1697167"><ele>145.0</ele><time>2026-03-29T10:08:24.834Z</time></trkpt><trkpt lat="44.1079267" lon="12.169775"><ele>143.5</ele><time>2026-03-29T10:08:26.828Z</time></trkpt><trkpt lat="44.1078233" lon="12.1698317"><ele>142.0</ele><time>2026-03-29T10:08:28.827Z</time></trkpt><trkpt lat="44.107725" lon="12.169885"><ele>140.5</ele><time>2026-03-29T10:08:30.828Z</time></trkpt><trkpt lat="44.1076483" lon="12.16992"><ele>139.0</ele><time>2026-03-29T10:08:32.829Z</time></trkpt><trkpt lat="44.107585" lon="12.1699467"><ele>137.5</ele><time>2026-03-29T10:08:35.831Z</time></trkpt><trkpt lat="44.1075217" lon="12.1699683"><ele>136.0</ele><time>2026-03-29T10:08:51.828Z</time></trkpt><trkpt lat="44.107435" lon="12.1699983"><ele>132.83333333333334</ele><time>2026-03-29T10:08:54.828Z</time></trkpt><trkpt lat="44.1073633" lon="12.1700083"><ele>129.66666666666669</ele><time>2026-03-29T10:08:56.829Z</time></trkpt><trkpt lat="44.1072917" lon="12.1700467"><ele>126.5</ele><time>2026-03-29T10:08:58.828Z</time></trkpt><trkpt lat="44.107215" lon="12.1700917"><ele>123.33333333333334</ele><time>2026-03-29T10:09:00.83Z</time></trkpt><trkpt lat="44.1071367" lon="12.17013"><ele>120.16666666666667</ele><time>2026-03-29T10:09:02.827Z</time></trkpt><trkpt lat="44.10705" lon="12.1701583"><ele>117.0</ele><time>2026-03-29T10:09:04.828Z</time></trkpt><trkpt lat="44.1069683" lon="12.1702033"><ele>117.0</ele><time>2026-03-29T10:09:06.828Z</time></trkpt><trkpt lat="44.1068917" lon="12.1702483"><ele>117.0</ele><time>2026-03-29T10:09:08.827Z</time></trkpt><trkpt lat="44.106815" lon="12.1702933"><ele>117.0</ele><time>2026-03-29T10:09:10.829Z</time></trkpt><trkpt lat="44.1067467" lon="12.1703"><ele>117.0</ele><time>2026-03-29T10:09:12.827Z</time></trkpt><trkpt lat="44.1066733" lon="12.1702567"><ele>117.0</ele><time>2026-03-29T10:09:14.828Z</time></trkpt><trkpt lat="44.1065967" lon="12.17025"><ele>117.0</ele><time>2026-03-29T10:09:16.826Z</time></trkpt><trkpt lat="44.106545" lon="12.1703017"><ele>117.0</ele><time>2026-03-29T10:09:18.827Z</time></trkpt><trkpt lat="44.10654" lon="12.17039"><ele>117.0</ele><time>2026-03-29T10:09:20.828Z</time></trkpt><trkpt lat="44.106585" lon="12.170485"><ele>117.0</ele><time>2026-03-29T10:09:26.828Z</time></trkpt><trkpt lat="44.1066633" lon="12.170515"><ele>117.0</ele><time>2026-03-29T10:09:30.827Z</time></trkpt><trkpt lat="44.1067333" lon="12.1705667"><ele>117.0</ele><time>2026-03-29T10:09:34.829Z</time></trkpt><trkpt lat="44.106815" lon="12.170585"><ele>117.0</ele><time>2026-03-29T10:09:37.827Z</time></trkpt><trkpt lat="44.1069067" lon="12.1706017"><ele>117.0</ele><time>2026-03-29T10:09:40.827Z</time></trkpt><trkpt lat="44.1069817" lon="12.1706233"><ele>117.0</ele><time>2026-03-29T10:09:43.828Z</time></trkpt><trkpt lat="44.10707" lon="12.17067"><ele>117.0</ele><time>2026-03-29T10:09:46.829Z</time></trkpt><trkpt lat="44.1071533" lon="12.1707333"><ele>117.0</ele><time>2026-03-29T10:09:49.83Z</time></trkpt><trkpt lat="44.107165" lon="12.17083"><ele>117.0</ele><time>2026-03-29T10:09:52.827Z</time></trkpt><trkpt lat="44.1071317" lon="12.170915"><ele>117.0</ele><time>2026-03-29T10:09:55.826Z</time></trkpt><trkpt lat="44.1070667" lon="12.170995"><ele>116.28571428571429</ele><time>2026-03-29T10:09:58.829Z</time></trkpt><trkpt lat="44.10701" lon="12.1710433"><ele>115.57142857142858</ele><time>2026-03-29T10:10:00.828Z</time></trkpt><trkpt lat="44.1069467" lon="12.1710617"><ele>114.85714285714286</ele><time>2026-03-29T10:10:02.828Z</time></trkpt><trkpt lat="44.1068833" lon="12.17108"><ele>114.14285714285714</ele><time>2026-03-29T10:10:04.83Z</time></trkpt><trkpt lat="44.1068" lon="12.1710783"><ele>113.42857142857143</ele><time>2026-03-29T10:10:07.828Z</time></trkpt><trkpt lat="44.10671" lon="12.171085"><ele>112.71428571428572</ele><time>2026-03-29T10:10:10.827Z</time></trkpt><trkpt lat="44.1066317" lon="12.1710883"><ele>112.0</ele><time>2026-03-29T10:10:12.828Z</time></trkpt><trkpt lat="44.10656" lon="12.1710967"><ele>109.42857142857143</ele><time>2026-03-29T10:10:14.828Z</time></trkpt><trkpt lat="44.1064867" lon="12.1710967"><ele>106.85714285714286</ele><time>2026-03-29T10:10:16.833Z</time></trkpt><trkpt lat="44.1064183" lon="12.17109"><ele>104.28571428571428</ele><time>2026-03-29T10:10:18.828Z</time></trkpt><trkpt lat="44.10634" lon="12.17109"><ele>101.71428571428572</ele><time>2026-03-29T10:10:20.828Z</time></trkpt><trkpt lat="44.106265" lon="12.1710717"><ele>99.14285714285714</ele><time>2026-03-29T10:10:22.828Z</time></trkpt><trkpt lat="44.106185" lon="12.1710867"><ele>96.57142857142857</ele><time>2026-03-29T10:10:24.828Z</time></trkpt><trkpt lat="44.1061183" lon="12.1710933"><ele>94.0</ele><time>2026-03-29T10:10:26.828Z</time></trkpt><trkpt lat="44.10604" lon="12.1710733"><ele>94.0</ele><time>2026-03-29T10:10:28.826Z</time></trkpt><trkpt lat="44.1059683" lon="12.17105"><ele>94.0</ele><time>2026-03-29T10:10:30.827Z</time></trkpt><trkpt lat="44.1059033" lon="12.17103"><ele>94.0</ele><time>2026-03-29T10:10:32.827Z</time></trkpt><trkpt lat="44.1058233" lon="12.1709983"><ele>94.0</ele><time>2026-03-29T10:10:34.827Z</time></trkpt><trkpt lat="44.10575" lon="12.1709783"><ele>94.0</ele><time>2026-03-29T10:10:36.828Z</time></trkpt><trkpt lat="44.1056817" lon="12.1709833"><ele>94.0</ele><time>2026-03-29T10:10:38.828Z</time></trkpt><trkpt lat="44.105605" lon="12.1709867"><ele>94.0</ele><time>2026-03-29T10:10:40.829Z</time></trkpt><trkpt lat="44.10552" lon="12.17097"><ele>94.85714285714286</ele><time>2026-03-29T10:10:42.829Z</time></trkpt><trkpt lat="44.1054517" lon="12.1709617"><ele>95.71428571428571</ele><time>2026-03-29T10:10:44.828Z</time></trkpt><trkpt lat="44.1053733" lon="12.1709517"><ele>96.57142857142858</ele><time>2026-03-29T10:10:46.828Z</time></trkpt><trkpt lat="44.1053033" lon="12.170935"><ele>97.42857142857143</ele><time>2026-03-29T10:10:48.829Z</time></trkpt><trkpt lat="44.105245" lon="12.1708917"><ele>98.28571428571429</ele><time>2026-03-29T10:10:51.831Z</time></trkpt><trkpt lat="44.10529" lon="12.170825"><ele>99.14285714285715</ele><time>2026-03-29T10:12:35.828Z</time></trkpt><trkpt lat="44.105325" lon="12.1707517"><ele>100.0</ele><time>2026-03-29T10:12:38.828Z</time></trkpt><trkpt lat="44.10535" lon="12.1706667"><ele>100.85714285714286</ele><time>2026-03-29T10:12:41.828Z</time></trkpt><trkpt lat="44.1053867" lon="12.17059"><ele>101.71428571428572</ele><time>2026-03-29T10:12:44.829Z</time></trkpt><trkpt lat="44.10545" lon="12.1705317"><ele>102.57142857142858</ele><time>2026-03-29T10:12:47.829Z</time></trkpt><trkpt lat="44.105505" lon="12.170445"><ele>103.42857142857143</ele><time>2026-03-29T10:12:50.829Z</time></trkpt><trkpt lat="44.1055483" lon="12.170375"><ele>104.28571428571428</ele><time>2026-03-29T10:12:52.83Z</time></trkpt><trkpt lat="44.1055833" lon="12.1702983"><ele>105.14285714285715</ele><time>2026-03-29T10:12:54.831Z</time></trkpt><trkpt lat="44.1056017" lon="12.1702083"><ele>106.0</ele><time>2026-03-29T10:12:56.829Z</time></trkpt><trkpt lat="44.1056117" lon="12.1701217"><ele>106.0</ele><time>2026-03-29T10:12:59.828Z</time></trkpt><trkpt lat="44.1056267" lon="12.1700283"><ele>106.0</ele><time>2026-03-29T10:13:01.829Z</time></trkpt><trkpt lat="44.1056433" lon="12.16993"><ele>106.0</ele><time>2026-03-29T10:13:03.827Z</time></trkpt><trkpt lat="44.1056517" lon="12.1698333"><ele>106.0</ele><time>2026-03-29T10:13:05.831Z</time></trkpt><trkpt lat="44.1056583" lon="12.1697417"><ele>106.0</ele><time>2026-03-29T10:13:07.828Z</time></trkpt><trkpt lat="44.1056617" lon="12.1696233"><ele>106.0</ele><time>2026-03-29T10:13:10.832Z</time></trkpt><trkpt lat="44.1056317" lon="12.1695167"><ele>106.0</ele><time>2026-03-29T10:13:13.829Z</time></trkpt><trkpt lat="44.1055983" lon="12.169395"><ele>106.14285714285715</ele><time>2026-03-29T10:13:16.827Z</time></trkpt><trkpt lat="44.1055733" lon="12.169305"><ele>106.28571428571428</ele><time>2026-03-29T10:13:19.828Z</time></trkpt><trkpt lat="44.1055283" lon="12.1692133"><ele>106.42857142857143</ele><time>2026-03-29T10:13:23.829Z</time></trkpt><trkpt lat="44.10549" lon="12.1691383"><ele>106.57142857142858</ele><time>2026-03-29T10:13:26.829Z</time></trkpt><trkpt lat="44.1054583" lon="12.16905"><ele>106.71428571428572</ele><time>2026-03-29T10:13:29.834Z</time></trkpt><trkpt lat="44.1054067" lon="12.16895"><ele>106.85714285714286</ele><time>2026-03-29T10:13:33.828Z</time></trkpt><trkpt lat="44.10536" lon="12.1688817"><ele>107.0</ele><time>2026-03-29T10:13:36.827Z</time></trkpt><trkpt lat="44.1053033" lon="12.1688133"><ele>107.14285714285715</ele><time>2026-03-29T10:13:40.833Z</time></trkpt><trkpt lat="44.1052633" lon="12.1687183"><ele>107.28571428571429</ele><time>2026-03-29T10:13:44.829Z</time></trkpt><trkpt lat="44.1052217" lon="12.1686517"><ele>107.42857142857143</ele><time>2026-03-29T10:13:47.827Z</time></trkpt><trkpt lat="44.1051767" lon="12.1685533"><ele>107.57142857142858</ele><time>2026-03-29T10:13:51.827Z</time></trkpt><trkpt lat="44.1051183" lon="12.1685083"><ele>107.71428571428571</ele><time>2026-03-29T10:13:54.828Z</time></trkpt><trkpt lat="44.1050783" lon="12.1684283"><ele>107.85714285714286</ele><time>2026-03-29T10:13:58.827Z</time></trkpt><trkpt lat="44.1050517" lon="12.1683433"><ele>108.0</ele><time>2026-03-29T10:14:01.829Z</time></trkpt><trkpt lat="44.105065" lon="12.1682533"><ele>108.0</ele><time>2026-03-29T10:14:05.827Z</time></trkpt><trkpt lat="44.10515" lon="12.1682633"><ele>108.0</ele><time>2026-03-29T10:14:09.828Z</time></trkpt><trkpt lat="44.1052283" lon="12.168265"><ele>108.0</ele><time>2026-03-29T10:14:12.827Z</time></trkpt><trkpt lat="44.1053" lon="12.16825"><ele>108.0</ele><time>2026-03-29T10:14:15.826Z</time></trkpt><trkpt lat="44.1053683" lon="12.1682083"><ele>108.0</ele><time>2026-03-29T10:14:19.83Z</time></trkpt><trkpt lat="44.1054083" lon="12.1681217"><ele>108.0</ele><time>2026-03-29T10:14:23.827Z</time></trkpt><trkpt lat="44.1054083" lon="12.1680183"><ele>110.57142857142857</ele><time>2026-03-29T10:14:27.828Z</time></trkpt><trkpt lat="44.1054033" lon="12.16793"><ele>113.14285714285714</ele><time>2026-03-29T10:14:30.829Z</time></trkpt><trkpt lat="44.105375" lon="12.1678233"><ele>115.71428571428572</ele><time>2026-03-29T10:14:34.828Z</time></trkpt><trkpt lat="44.105355" lon="12.1677317"><ele>118.28571428571428</ele><time>2026-03-29T10:14:37.829Z</time></trkpt><trkpt lat="44.105345" lon="12.167645"><ele>120.85714285714286</ele><time>2026-03-29T10:14:41.828Z</time></trkpt><trkpt lat="44.1053533" lon="12.1675467"><ele>123.42857142857143</ele><time>2026-03-29T10:14:45.827Z</time></trkpt><trkpt lat="44.10536" lon="12.1674383"><ele>126.0</ele><time>2026-03-29T10:14:49.83Z</time></trkpt><trkpt lat="44.10538" lon="12.16734"><ele>128.66666666666666</ele><time>2026-03-29T10:14:53.829Z</time></trkpt><trkpt lat="44.1054033" lon="12.16723"><ele>131.33333333333334</ele><time>2026-03-29T10:14:57.828Z</time></trkpt><trkpt lat="44.10541" lon="12.1671333"><ele>134.0</ele><time>2026-03-29T10:15:01.834Z</time></trkpt><trkpt lat="44.105405" lon="12.167035"><ele>136.66666666666669</ele><time>2026-03-29T10:15:06.827Z</time></trkpt><trkpt lat="44.1054317" lon="12.1669383"><ele>139.33333333333334</ele><time>2026-03-29T10:15:10.827Z</time></trkpt><trkpt lat="44.1054383" lon="12.16684"><ele>142.0</ele><time>2026-03-29T10:15:14.834Z</time></trkpt><trkpt lat="44.1054583" lon="12.1667283"><ele>142.0</ele><time>2026-03-29T10:15:18.829Z</time></trkpt><trkpt lat="44.1054817" lon="12.16662"><ele>142.0</ele><time>2026-03-29T10:15:22.828Z</time></trkpt><trkpt lat="44.105505" lon="12.1665367"><ele>142.0</ele><time>2026-03-29T10:15:25.828Z</time></trkpt><trkpt lat="44.10553" lon="12.16645"><ele>142.0</ele><time>2026-03-29T10:15:28.83Z</time></trkpt><trkpt lat="44.1055583" lon="12.1663467"><ele>142.0</ele><time>2026-03-29T10:15:32.829Z</time></trkpt><trkpt lat="44.105595" lon="12.1662583"><ele>142.0</ele><time>2026-03-29T10:15:36.832Z</time></trkpt><trkpt lat="44.1056283" lon="12.1661717"><ele>142.0</ele><time>2026-03-29T10:15:40.827Z</time></trkpt><trkpt lat="44.1056667" lon="12.1660717"><ele>141.42857142857142</ele><time>2026-03-29T10:15:45.831Z</time></trkpt><trkpt lat="44.1057" lon="12.1659867"><ele>140.85714285714283</ele><time>2026-03-29T10:15:48.829Z</time></trkpt><trkpt lat="44.105735" lon="12.1658967"><ele>140.28571428571428</ele><time>2026-03-29T10:15:51.829Z</time></trkpt><trkpt lat="44.1057767" lon="12.1658067"><ele>139.71428571428572</ele><time>2026-03-29T10:15:54.831Z</time></trkpt><trkpt lat="44.1058067" lon="12.1657117"><ele>139.14285714285717</ele><time>2026-03-29T10:15:57.83Z</time></trkpt><trkpt lat="44.105835" lon="12.1656233"><ele>138.57142857142858</ele><time>2026-03-29T10:16:00.827Z</time></trkpt><trkpt lat="44.10587" lon="12.1655467"><ele>138.0</ele><time>2026-03-29T10:16:03.833Z</time></trkpt><trkpt lat="44.1059017" lon="12.1654633"><ele>139.85714285714286</ele><time>2026-03-29T10:16:06.828Z</time></trkpt><trkpt lat="44.1059433" lon="12.165385"><ele>141.71428571428572</ele><time>2026-03-29T10:16:09.829Z</time></trkpt><trkpt lat="44.1059717" lon="12.165305"><ele>143.57142857142858</ele><time>2026-03-29T10:16:12.834Z</time></trkpt><trkpt lat="44.1059917" lon="12.1652167"><ele>145.42857142857144</ele><time>2026-03-29T10:16:15.828Z</time></trkpt><trkpt lat="44.1060233" lon="12.1651383"><ele>147.28571428571428</ele><time>2026-03-29T10:16:18.828Z</time></trkpt><trkpt lat="44.1060617" lon="12.1650567"><ele>149.14285714285717</ele><time>2026-03-29T10:16:21.827Z</time></trkpt><trkpt lat="44.106105" lon="12.1649533"><ele>151.0</ele><time>2026-03-29T10:16:25.832Z</time></trkpt><trkpt lat="44.106125" lon="12.164865"><ele>151.0</ele><time>2026-03-29T10:16:28.829Z</time></trkpt><trkpt lat="44.106155" lon="12.1647867"><ele>151.0</ele><time>2026-03-29T10:16:31.83Z</time></trkpt><trkpt lat="44.1061833" lon="12.1646917"><ele>151.0</ele><time>2026-03-29T10:16:35.827Z</time></trkpt><trkpt lat="44.1062033" lon="12.1645883"><ele>151.0</ele><time>2026-03-29T10:16:39.827Z</time></trkpt><trkpt lat="44.1061667" lon="12.164695"><ele>151.0</ele><time>2026-03-29T10:16:52.827Z</time></trkpt><trkpt lat="44.1061367" lon="12.16481"><ele>151.0</ele><time>2026-03-29T10:16:55.83Z</time></trkpt><trkpt lat="44.10611" lon="12.1649067"><ele>151.00000000000003</ele><time>2026-03-29T10:16:57.833Z</time></trkpt><trkpt lat="44.1060833" lon="12.1649967"><ele>151.0</ele><time>2026-03-29T10:16:59.83Z</time></trkpt><trkpt lat="44.1060617" lon="12.1650817"><ele>151.0</ele><time>2026-03-29T10:17:01.831Z</time></trkpt><trkpt lat="44.106025" lon="12.165165"><ele>151.0</ele><time>2026-03-29T10:17:03.831Z</time></trkpt><trkpt lat="44.10598" lon="12.165265"><ele>151.0</ele><time>2026-03-29T10:17:06.828Z</time></trkpt><trkpt lat="44.10595" lon="12.1653467"><ele>151.00000000000003</ele><time>2026-03-29T10:17:08.827Z</time></trkpt><trkpt lat="44.10592" lon="12.1654667"><ele>151.0</ele><time>2026-03-29T10:17:11.828Z</time></trkpt><trkpt lat="44.1058817" lon="12.1655533"><ele>151.0</ele><time>2026-03-29T10:17:13.829Z</time></trkpt><trkpt lat="44.1058383" lon="12.1656533"><ele>151.0</ele><time>2026-03-29T10:17:15.827Z</time></trkpt><trkpt lat="44.1057983" lon="12.16577"><ele>151.0</ele><time>2026-03-29T10:17:17.831Z</time></trkpt><trkpt lat="44.1057517" lon="12.165885"><ele>151.0</ele><time>2026-03-29T10:17:19.829Z</time></trkpt><trkpt lat="44.1057167" lon="12.16601"><ele>151.0</ele><time>2026-03-29T10:17:21.829Z</time></trkpt><trkpt lat="44.1056717" lon="12.1661133"><ele>152.8</ele><time>2026-03-29T10:17:23.829Z</time></trkpt><trkpt lat="44.1056233" lon="12.1662317"><ele>154.6</ele><time>2026-03-29T10:17:25.837Z</time></trkpt><trkpt lat="44.1055733" lon="12.1663517"><ele>156.4</ele><time>2026-03-29T10:17:27.828Z</time></trkpt><trkpt lat="44.105525" lon="12.16648"><ele>158.2</ele><time>2026-03-29T10:17:29.827Z</time></trkpt><trkpt lat="44.1054867" lon="12.16661"><ele>160.0</ele><time>2026-03-29T10:17:31.827Z</time></trkpt><trkpt lat="44.1054583" lon="12.1667283"><ele>156.4</ele><time>2026-03-29T10:17:33.828Z</time></trkpt><trkpt lat="44.1054383" lon="12.166835"><ele>152.8</ele><time>2026-03-29T10:17:35.834Z</time></trkpt><trkpt lat="44.1054283" lon="12.1669317"><ele>149.2</ele><time>2026-03-29T10:17:37.827Z</time></trkpt><trkpt lat="44.1054267" lon="12.1670483"><ele>145.6</ele><time>2026-03-29T10:17:40.827Z</time></trkpt><trkpt lat="44.1053283" lon="12.1669117"><ele>142.0</ele><time>2026-03-29T10:18:29.829Z</time></trkpt><trkpt lat="44.10532" lon="12.1668"><ele>142.0</ele><time>2026-03-29T10:18:34.827Z</time></trkpt><trkpt lat="44.1053133" lon="12.1666983"><ele>142.0</ele><time>2026-03-29T10:18:38.828Z</time></trkpt><trkpt lat="44.1053067" lon="12.1665833"><ele>142.0</ele><time>2026-03-29T10:18:42.829Z</time></trkpt><trkpt lat="44.105315" lon="12.166495"><ele>142.0</ele><time>2026-03-29T10:18:46.828Z</time></trkpt><trkpt lat="44.10534" lon="12.1664017"><ele>142.0</ele><time>2026-03-29T10:18:50.829Z</time></trkpt><trkpt lat="44.105375" lon="12.1663117"><ele>142.0</ele><time>2026-03-29T10:18:54.829Z</time></trkpt><trkpt lat="44.1053733" lon="12.1662033"><ele>142.0</ele><time>2026-03-29T10:18:59.828Z</time></trkpt><trkpt lat="44.1053583" lon="12.1660883"><ele>145.0</ele><time>2026-03-29T10:19:03.829Z</time></trkpt><trkpt lat="44.1053733" lon="12.1659917"><ele>148.0</ele><time>2026-03-29T10:19:07.827Z</time></trkpt><trkpt lat="44.10537" lon="12.165885"><ele>151.0</ele><time>2026-03-29T10:19:13.829Z</time></trkpt><trkpt lat="44.1053683" lon="12.16578"><ele>154.0</ele><time>2026-03-29T10:19:18.828Z</time></trkpt><trkpt lat="44.1053833" lon="12.1656867"><ele>157.0</ele><time>2026-03-29T10:19:23.828Z</time></trkpt><trkpt lat="44.1054067" lon="12.1655833"><ele>160.0</ele><time>2026-03-29T10:19:29.828Z</time></trkpt><trkpt lat="44.1054467" lon="12.1654183"><ele>163.0</ele><time>2026-03-29T10:20:39.826Z</time></trkpt><trkpt lat="44.1054383" lon="12.1653"><ele>166.0</ele><time>2026-03-29T10:21:05.831Z</time></trkpt><trkpt lat="44.105445" lon="12.1651983"><ele>169.0</ele><time>2026-03-29T10:21:09.829Z</time></trkpt><trkpt lat="44.105495" lon="12.1651317"><ele>172.0</ele><time>2026-03-29T10:21:14.827Z</time></trkpt><trkpt lat="44.1055267" lon="12.16504"><ele>175.0</ele><time>2026-03-29T10:21:19.828Z</time></trkpt><trkpt lat="44.1055567" lon="12.16495"><ele>178.0</ele><time>2026-03-29T10:21:23.828Z</time></trkpt><trkpt lat="44.105585" lon="12.1648483"><ele>176.42857142857142</ele><time>2026-03-29T10:21:27.828Z</time></trkpt><trkpt lat="44.105625" lon="12.1647667"><ele>174.85714285714286</ele><time>2026-03-29T10:21:31.829Z</time></trkpt><trkpt lat="44.10567" lon="12.1647017"><ele>173.28571428571428</ele><time>2026-03-29T10:21:34.828Z</time></trkpt><trkpt lat="44.1056983" lon="12.164615"><ele>171.71428571428572</ele><time>2026-03-29T10:21:38.829Z</time></trkpt><trkpt lat="44.1057333" lon="12.164535"><ele>170.14285714285714</ele><time>2026-03-29T10:21:41.827Z</time></trkpt><trkpt lat="44.1057683" lon="12.1644433"><ele>168.57142857142856</ele><time>2026-03-29T10:21:44.83Z</time></trkpt><trkpt lat="44.1058117" lon="12.164365"><ele>167.0</ele><time>2026-03-29T10:21:48.828Z</time></trkpt><trkpt lat="44.1058417" lon="12.1642683"><ele>167.0</ele><time>2026-03-29T10:21:52.828Z</time></trkpt><trkpt lat="44.1058767" lon="12.16418"><ele>167.0</ele><time>2026-03-29T10:21:55.83Z</time></trkpt><trkpt lat="44.1059083" lon="12.16407"><ele>167.0</ele><time>2026-03-29T10:21:59.829Z</time></trkpt><trkpt lat="44.10594" lon="12.1639667"><ele>167.0</ele><time>2026-03-29T10:22:02.828Z</time></trkpt><trkpt lat="44.1059733" lon="12.1638583"><ele>167.0</ele><time>2026-03-29T10:22:05.828Z</time></trkpt><trkpt lat="44.1059983" lon="12.163775"><ele>167.0</ele><time>2026-03-29T10:22:07.828Z</time></trkpt><trkpt lat="44.1060217" lon="12.16369"><ele>169.0</ele><time>2026-03-29T10:22:09.827Z</time></trkpt><trkpt lat="44.1060617" lon="12.16358"><ele>171.0</ele><time>2026-03-29T10:22:12.827Z</time></trkpt><trkpt lat="44.1061067" lon="12.1634917"><ele>173.0</ele><time>2026-03-29T10:22:15.828Z</time></trkpt><trkpt lat="44.1061617" lon="12.163395"><ele>175.0</ele><time>2026-03-29T10:22:18.83Z</time></trkpt><trkpt lat="44.106195" lon="12.1633167"><ele>177.0</ele><time>2026-03-29T10:22:20.833Z</time></trkpt><trkpt lat="44.106235" lon="12.16322"><ele>179.0</ele><time>2026-03-29T10:22:23.826Z</time></trkpt><trkpt lat="44.1062833" lon="12.1631417"><ele>180.0</ele><time>2026-03-29T10:22:26.827Z</time></trkpt><trkpt lat="44.1062717" lon="12.1630433"><ele>181.0</ele><time>2026-03-29T10:22:34.827Z</time></trkpt><trkpt lat="44.1063333" lon="12.1629817"><ele>182.0</ele><time>2026-03-29T10:22:40.831Z</time></trkpt><trkpt lat="44.106405" lon="12.1629367"><ele>183.0</ele><time>2026-03-29T10:22:45.828Z</time></trkpt><trkpt lat="44.1064783" lon="12.1629183"><ele>184.0</ele><time>2026-03-29T10:22:49.828Z</time></trkpt><trkpt lat="44.10656" lon="12.16285"><ele>185.0</ele><time>2026-03-29T10:22:53.829Z</time></trkpt><trkpt lat="44.10661" lon="12.16279"><ele>180.83333333333331</ele><time>2026-03-29T10:22:55.827Z</time></trkpt><trkpt lat="44.1066817" lon="12.162705"><ele>176.66666666666666</ele><time>2026-03-29T10:22:58.83Z</time></trkpt><trkpt lat="44.1067267" lon="12.1626383"><ele>172.5</ele><time>2026-03-29T10:23:00.829Z</time></trkpt><trkpt lat="44.1067683" lon="12.16256"><ele>168.33333333333334</ele><time>2026-03-29T10:23:02.831Z</time></trkpt><trkpt lat="44.1068067" lon="12.162485"><ele>164.16666666666669</ele><time>2026-03-29T10:23:04.829Z</time></trkpt><trkpt lat="44.1068533" lon="12.1623767"><ele>160.0</ele><time>2026-03-29T10:23:07.827Z</time></trkpt><trkpt lat="44.10688" lon="12.1622817"><ele>160.0</ele><time>2026-03-29T10:23:10.828Z</time></trkpt><trkpt lat="44.106895" lon="12.162135"><ele>160.0</ele><time>2026-03-29T10:24:00.827Z</time></trkpt><trkpt lat="44.1069017" lon="12.1620417"><ele>160.0</ele><time>2026-03-29T10:24:16.828Z</time></trkpt><trkpt lat="44.1069033" lon="12.1619433"><ele>160.0</ele><time>2026-03-29T10:24:20.829Z</time></trkpt><trkpt lat="44.1069" lon="12.1618467"><ele>160.0</ele><time>2026-03-29T10:24:24.83Z</time></trkpt><trkpt lat="44.1068817" lon="12.1617417"><ele>160.0</ele><time>2026-03-29T10:24:29.83Z</time></trkpt><trkpt lat="44.1068717" lon="12.1616533"><ele>160.83333333333334</ele><time>2026-03-29T10:24:33.83Z</time></trkpt><trkpt lat="44.1068483" lon="12.1614583"><ele>161.66666666666669</ele><time>2026-03-29T10:24:43.829Z</time></trkpt><trkpt lat="44.106825" lon="12.16136"><ele>162.5</ele><time>2026-03-29T10:24:48.828Z</time></trkpt><trkpt lat="44.106825" lon="12.16126"><ele>163.33333333333334</ele><time>2026-03-29T10:24:54.828Z</time></trkpt><trkpt lat="44.1068017" lon="12.1611717"><ele>164.16666666666666</ele><time>2026-03-29T10:25:00.83Z</time></trkpt><trkpt lat="44.1068017" lon="12.16106"><ele>165.0</ele><time>2026-03-29T10:25:07.827Z</time></trkpt><trkpt lat="44.10683" lon="12.1609617"><ele>165.00000000000003</ele><time>2026-03-29T10:25:13.83Z</time></trkpt><trkpt lat="44.1068317" lon="12.16085"><ele>165.0</ele><time>2026-03-29T10:25:17.828Z</time></trkpt><trkpt lat="44.1068367" lon="12.160745"><ele>165.0</ele><time>2026-03-29T10:25:20.832Z</time></trkpt><trkpt lat="44.1068633" lon="12.1606417"><ele>165.0</ele><time>2026-03-29T10:25:23.828Z</time></trkpt><trkpt lat="44.1068967" lon="12.160565"><ele>165.0</ele><time>2026-03-29T10:25:25.833Z</time></trkpt><trkpt lat="44.1069283" lon="12.1604833"><ele>165.00000000000003</ele><time>2026-03-29T10:25:27.826Z</time></trkpt><trkpt lat="44.106965" lon="12.1603967"><ele>165.0</ele><time>2026-03-29T10:25:29.827Z</time></trkpt><trkpt lat="44.106985" lon="12.16031"><ele>164.71428571428572</ele><time>2026-03-29T10:25:31.827Z</time></trkpt><trkpt lat="44.1069983" lon="12.16021"><ele>164.42857142857144</ele><time>2026-03-29T10:25:33.827Z</time></trkpt><trkpt lat="44.1069983" lon="12.1601083"><ele>164.14285714285717</ele><time>2026-03-29T10:25:35.826Z</time></trkpt><trkpt lat="44.1069817" lon="12.1600117"><ele>163.85714285714286</ele><time>2026-03-29T10:25:37.828Z</time></trkpt><trkpt lat="44.106955" lon="12.1599183"><ele>163.57142857142856</ele><time>2026-03-29T10:25:39.826Z</time></trkpt><trkpt lat="44.1069567" lon="12.159825"><ele>163.2857142857143</ele><time>2026-03-29T10:25:42.831Z</time></trkpt><trkpt lat="44.1069617" lon="12.15971"><ele>163.0</ele><time>2026-03-29T10:25:45.827Z</time></trkpt><trkpt lat="44.1069767" lon="12.1596233"><ele>163.0</ele><time>2026-03-29T10:25:47.827Z</time></trkpt><trkpt lat="44.107015" lon="12.159535"><ele>163.0</ele><time>2026-03-29T10:25:49.828Z</time></trkpt><trkpt lat="44.1070533" lon="12.159435"><ele>163.0</ele><time>2026-03-29T10:25:52.827Z</time></trkpt><trkpt lat="44.1070983" lon="12.159355"><ele>163.0</ele><time>2026-03-29T10:25:55.827Z</time></trkpt><trkpt lat="44.1071233" lon="12.1592267"><ele>163.0</ele><time>2026-03-29T10:26:17.826Z</time></trkpt><trkpt lat="44.10712" lon="12.1591383"><ele>163.0</ele><time>2026-03-29T10:26:20.828Z</time></trkpt><trkpt lat="44.10709" lon="12.159055"><ele>162.71428571428572</ele><time>2026-03-29T10:26:24.831Z</time></trkpt><trkpt lat="44.1070183" lon="12.158975"><ele>162.42857142857142</ele><time>2026-03-29T10:26:30.827Z</time></trkpt><trkpt lat="44.1069733" lon="12.1589"><ele>162.14285714285714</ele><time>2026-03-29T10:26:34.832Z</time></trkpt><trkpt lat="44.10694" lon="12.1588167"><ele>161.85714285714286</ele><time>2026-03-29T10:26:38.828Z</time></trkpt><trkpt lat="44.106905" lon="12.1587383"><ele>161.57142857142856</ele><time>2026-03-29T10:26:42.826Z</time></trkpt><trkpt lat="44.1068517" lon="12.1586817"><ele>161.28571428571428</ele><time>2026-03-29T10:26:49.828Z</time></trkpt><trkpt lat="44.1068167" lon="12.158595"><ele>161.0</ele><time>2026-03-29T10:26:52.826Z</time></trkpt><trkpt lat="44.1067717" lon="12.158505"><ele>161.0</ele><time>2026-03-29T10:26:57.829Z</time></trkpt><trkpt lat="44.1067083" lon="12.1583083"><ele>161.0</ele><time>2026-03-29T10:27:12.829Z</time></trkpt><trkpt lat="44.1067033" lon="12.158195"><ele>161.0</ele><time>2026-03-29T10:27:16.828Z</time></trkpt><trkpt lat="44.106755" lon="12.1581283"><ele>161.0</ele><time>2026-03-29T10:27:21.83Z</time></trkpt><trkpt lat="44.1067667" lon="12.1580167"><ele>161.0</ele><time>2026-03-29T10:27:26.83Z</time></trkpt><trkpt lat="44.1067667" lon="12.157925"><ele>161.16666666666666</ele><time>2026-03-29T10:27:29.828Z</time></trkpt><trkpt lat="44.10674" lon="12.1578383"><ele>161.33333333333331</ele><time>2026-03-29T10:27:32.829Z</time></trkpt><trkpt lat="44.1066983" lon="12.1577433"><ele>161.5</ele><time>2026-03-29T10:27:36.83Z</time></trkpt><trkpt lat="44.1066567" lon="12.1576633"><ele>161.66666666666666</ele><time>2026-03-29T10:27:40.828Z</time></trkpt><trkpt lat="44.106615" lon="12.1575767"><ele>161.83333333333334</ele><time>2026-03-29T10:27:44.831Z</time></trkpt><trkpt lat="44.1065817" lon="12.1574617"><ele>162.0</ele><time>2026-03-29T10:27:48.827Z</time></trkpt><trkpt lat="44.106565" lon="12.15735"><ele>165.71428571428572</ele><time>2026-03-29T10:27:52.828Z</time></trkpt><trkpt lat="44.10651" lon="12.15728"><ele>169.42857142857142</ele><time>2026-03-29T10:27:56.829Z</time></trkpt><trkpt lat="44.1064717" lon="12.157195"><ele>173.14285714285714</ele><time>2026-03-29T10:28:00.829Z</time></trkpt><trkpt lat="44.1064383" lon="12.1570933"><ele>176.85714285714286</ele><time>2026-03-29T10:28:04.828Z</time></trkpt><trkpt lat="44.1064217" lon="12.157005"><ele>180.57142857142856</ele><time>2026-03-29T10:28:07.828Z</time></trkpt><trkpt lat="44.1063667" lon="12.1569167"><ele>184.28571428571428</ele><time>2026-03-29T10:28:11.827Z</time></trkpt><trkpt lat="44.1063333" lon="12.1568283"><ele>188.0</ele><time>2026-03-29T10:28:14.829Z</time></trkpt><trkpt lat="44.106295" lon="12.1567467"><ele>188.0</ele><time>2026-03-29T10:28:18.831Z</time></trkpt><trkpt lat="44.10624" lon="12.1566783"><ele>188.0</ele><time>2026-03-29T10:28:22.829Z</time></trkpt><trkpt lat="44.1061833" lon="12.1566217"><ele>188.0</ele><time>2026-03-29T10:28:26.829Z</time></trkpt><trkpt lat="44.1061383" lon="12.1565333"><ele>188.0</ele><time>2026-03-29T10:28:29.836Z</time></trkpt><trkpt lat="44.106085" lon="12.1564533"><ele>188.0</ele><time>2026-03-29T10:28:32.829Z</time></trkpt><trkpt lat="44.1060417" lon="12.1563867"><ele>188.0</ele><time>2026-03-29T10:28:35.828Z</time></trkpt><trkpt lat="44.1060017" lon="12.1563033"><ele>188.0</ele><time>2026-03-29T10:28:38.828Z</time></trkpt><trkpt lat="44.1059433" lon="12.156245"><ele>187.5</ele><time>2026-03-29T10:28:41.835Z</time></trkpt><trkpt lat="44.1058667" lon="12.15622"><ele>187.0</ele><time>2026-03-29T10:28:45.827Z</time></trkpt><trkpt lat="44.1057967" lon="12.1561767"><ele>186.5</ele><time>2026-03-29T10:28:49.829Z</time></trkpt><trkpt lat="44.1057083" lon="12.156165"><ele>186.0</ele><time>2026-03-29T10:28:56.831Z</time></trkpt><trkpt lat="44.105595" lon="12.156175"><ele>185.5</ele><time>2026-03-29T10:30:15.827Z</time></trkpt><trkpt lat="44.1055317" lon="12.1562433"><ele>185.0</ele><time>2026-03-29T10:30:19.828Z</time></trkpt><trkpt lat="44.1054817" lon="12.1563067"><ele>184.99999999999997</ele><time>2026-03-29T10:30:22.832Z</time></trkpt><trkpt lat="44.10542" lon="12.15637"><ele>185.0</ele><time>2026-03-29T10:30:25.827Z</time></trkpt><trkpt lat="44.1053717" lon="12.1564267"><ele>185.0</ele><time>2026-03-29T10:30:28.829Z</time></trkpt><trkpt lat="44.1053133" lon="12.1564767"><ele>185.0</ele><time>2026-03-29T10:30:31.829Z</time></trkpt><trkpt lat="44.1052433" lon="12.156535"><ele>185.0</ele><time>2026-03-29T10:30:34.827Z</time></trkpt><trkpt lat="44.1051783" lon="12.1565967"><ele>184.99999999999997</ele><time>2026-03-29T10:30:37.828Z</time></trkpt><trkpt lat="44.10511" lon="12.1566567"><ele>185.0</ele><time>2026-03-29T10:30:41.829Z</time></trkpt><trkpt lat="44.1050333" lon="12.1567"><ele>187.0</ele><time>2026-03-29T10:30:45.828Z</time></trkpt><trkpt lat="44.104975" lon="12.1567483"><ele>189.0</ele><time>2026-03-29T10:30:48.828Z</time></trkpt><trkpt lat="44.1049133" lon="12.15679"><ele>191.0</ele><time>2026-03-29T10:30:51.834Z</time></trkpt><trkpt lat="44.1048533" lon="12.1568367"><ele>193.0</ele><time>2026-03-29T10:30:54.828Z</time></trkpt><trkpt lat="44.1047733" lon="12.156875"><ele>195.00000000000003</ele><time>2026-03-29T10:30:57.828Z</time></trkpt><trkpt lat="44.10471" lon="12.156905"><ele>197.0</ele><time>2026-03-29T10:30:59.827Z</time></trkpt><trkpt lat="44.10462" lon="12.15694"><ele>198.00000000000003</ele><time>2026-03-29T10:31:02.828Z</time></trkpt><trkpt lat="44.10453" lon="12.1569567"><ele>199.0</ele><time>2026-03-29T10:31:05.828Z</time></trkpt><trkpt lat="44.1044667" lon="12.1569533"><ele>200.0</ele><time>2026-03-29T10:31:07.831Z</time></trkpt><trkpt lat="44.10439" lon="12.15697"><ele>201.0</ele><time>2026-03-29T10:31:10.831Z</time></trkpt><trkpt lat="44.1043083" lon="12.15698"><ele>202.00000000000003</ele><time>2026-03-29T10:31:13.829Z</time></trkpt><trkpt lat="44.10424" lon="12.1569917"><ele>203.0</ele><time>2026-03-29T10:31:16.828Z</time></trkpt><trkpt lat="44.1041683" lon="12.1569767"><ele>203.0</ele><time>2026-03-29T10:31:19.831Z</time></trkpt><trkpt lat="44.1041" lon="12.15697"><ele>203.0</ele><time>2026-03-29T10:31:22.827Z</time></trkpt><trkpt lat="44.1040367" lon="12.1569667"><ele>203.0</ele><time>2026-03-29T10:31:25.828Z</time></trkpt><trkpt lat="44.103965" lon="12.1569533"><ele>203.0</ele><time>2026-03-29T10:31:29.829Z</time></trkpt><trkpt lat="44.1038933" lon="12.1569533"><ele>203.0</ele><time>2026-03-29T10:31:33.829Z</time></trkpt><trkpt lat="44.10387" lon="12.1568667"><ele>203.0</ele><time>2026-03-29T10:31:51.828Z</time></trkpt><trkpt lat="44.1038333" lon="12.1567717"><ele>203.0</ele><time>2026-03-29T10:31:55.828Z</time></trkpt><trkpt lat="44.103795" lon="12.1566817"><ele>207.66666666666669</ele><time>2026-03-29T10:31:58.828Z</time></trkpt><trkpt lat="44.1037633" lon="12.156595"><ele>212.33333333333334</ele><time>2026-03-29T10:32:01.829Z</time></trkpt><trkpt lat="44.103735" lon="12.1564917"><ele>217.0</ele><time>2026-03-29T10:32:05.83Z</time></trkpt><trkpt lat="44.103715" lon="12.1563867"><ele>221.66666666666669</ele><time>2026-03-29T10:32:09.829Z</time></trkpt><trkpt lat="44.1037033" lon="12.1562817"><ele>226.33333333333334</ele><time>2026-03-29T10:32:13.829Z</time></trkpt><trkpt lat="44.103705" lon="12.1561683"><ele>231.0</ele><time>2026-03-29T10:32:17.829Z</time></trkpt><trkpt lat="44.1037083" lon="12.1560517"><ele>232.14285714285714</ele><time>2026-03-29T10:32:21.828Z</time></trkpt><trkpt lat="44.1037183" lon="12.1559617"><ele>233.28571428571428</ele><time>2026-03-29T10:32:24.827Z</time></trkpt><trkpt lat="44.1037383" lon="12.1558667"><ele>234.42857142857144</ele><time>2026-03-29T10:32:27.828Z</time></trkpt><trkpt lat="44.1037483" lon="12.1557767"><ele>235.57142857142858</ele><time>2026-03-29T10:32:30.827Z</time></trkpt><trkpt lat="44.1037667" lon="12.1556717"><ele>236.71428571428572</ele><time>2026-03-29T10:32:34.828Z</time></trkpt><trkpt lat="44.103785" lon="12.1555783"><ele>237.8571428571429</ele><time>2026-03-29T10:32:37.829Z</time></trkpt><trkpt lat="44.1038" lon="12.1554833"><ele>239.00000000000003</ele><time>2026-03-29T10:32:40.83Z</time></trkpt><trkpt lat="44.103815" lon="12.1553733"><ele>240.33333333333334</ele><time>2026-03-29T10:32:44.83Z</time></trkpt><trkpt lat="44.103845" lon="12.1552617"><ele>241.66666666666669</ele><time>2026-03-29T10:32:47.829Z</time></trkpt><trkpt lat="44.1038617" lon="12.155155"><ele>243.0</ele><time>2026-03-29T10:32:50.829Z</time></trkpt><trkpt lat="44.1038783" lon="12.1550633"><ele>244.33333333333331</ele><time>2026-03-29T10:32:53.828Z</time></trkpt><trkpt lat="44.103885" lon="12.1549533"><ele>245.66666666666666</ele><time>2026-03-29T10:32:57.83Z</time></trkpt><trkpt lat="44.1039" lon="12.1548617"><ele>247.0</ele><time>2026-03-29T10:33:00.837Z</time></trkpt><trkpt lat="44.1039033" lon="12.1547483"><ele>244.28571428571428</ele><time>2026-03-29T10:33:04.83Z</time></trkpt><trkpt lat="44.103895" lon="12.1546567"><ele>241.57142857142856</ele><time>2026-03-29T10:33:07.83Z</time></trkpt><trkpt lat="44.1038717" lon="12.1545567"><ele>238.85714285714283</ele><time>2026-03-29T10:33:10.829Z</time></trkpt><trkpt lat="44.10382" lon="12.154475"><ele>236.14285714285714</ele><time>2026-03-29T10:33:13.828Z</time></trkpt><trkpt lat="44.1037533" lon="12.1544083"><ele>233.4285714285714</ele><time>2026-03-29T10:33:17.827Z</time></trkpt><trkpt lat="44.1036917" lon="12.1543667"><ele>230.7142857142857</ele><time>2026-03-29T10:33:20.829Z</time></trkpt><trkpt lat="44.1036333" lon="12.15433"><ele>228.0</ele><time>2026-03-29T10:33:23.831Z</time></trkpt><trkpt lat="44.1035517" lon="12.1542983"><ele>228.0</ele><time>2026-03-29T10:33:27.827Z</time></trkpt><trkpt lat="44.103485" lon="12.1543117"><ele>227.99999999999997</ele><time>2026-03-29T10:33:30.827Z</time></trkpt><trkpt lat="44.1034217" lon="12.1543433"><ele>228.0</ele><time>2026-03-29T10:33:33.828Z</time></trkpt><trkpt lat="44.1033667" lon="12.15439"><ele>228.0</ele><time>2026-03-29T10:33:36.829Z</time></trkpt><trkpt lat="44.1033083" lon="12.154435"><ele>227.99999999999997</ele><time>2026-03-29T10:33:39.827Z</time></trkpt><trkpt lat="44.103245" lon="12.1544883"><ele>228.0</ele><time>2026-03-29T10:33:43.829Z</time></trkpt><trkpt lat="44.103175" lon="12.15452"><ele>228.0</ele><time>2026-03-29T10:33:47.828Z</time></trkpt><trkpt lat="44.1031067" lon="12.1545533"><ele>229.16666666666666</ele><time>2026-03-29T10:33:51.827Z</time></trkpt><trkpt lat="44.1030467" lon="12.1545817"><ele>230.33333333333331</ele><time>2026-03-29T10:33:55.83Z</time></trkpt><trkpt lat="44.1029767" lon="12.1546133"><ele>231.5</ele><time>2026-03-29T10:33:59.827Z</time></trkpt><trkpt lat="44.10292" lon="12.1546567"><ele>232.66666666666666</ele><time>2026-03-29T10:34:03.829Z</time></trkpt><trkpt lat="44.10299" lon="12.1547233"><ele>233.83333333333331</ele><time>2026-03-29T10:34:07.828Z</time></trkpt><trkpt lat="44.103055" lon="12.154775"><ele>235.0</ele><time>2026-03-29T10:34:10.833Z</time></trkpt><trkpt lat="44.1031167" lon="12.154865"><ele>238.28571428571428</ele><time>2026-03-29T10:34:14.827Z</time></trkpt><trkpt lat="44.1030817" lon="12.1549517"><ele>241.57142857142856</ele><time>2026-03-29T10:36:03.829Z</time></trkpt><trkpt lat="44.1030233" lon="12.1549883"><ele>244.85714285714283</ele><time>2026-03-29T10:36:06.828Z</time></trkpt><trkpt lat="44.1029767" lon="12.1550583"><ele>248.1428571428571</ele><time>2026-03-29T10:36:09.83Z</time></trkpt><trkpt lat="44.102945" lon="12.155145"><ele>251.42857142857142</ele><time>2026-03-29T10:36:12.828Z</time></trkpt><trkpt lat="44.1029233" lon="12.155235"><ele>254.71428571428567</ele><time>2026-03-29T10:36:15.827Z</time></trkpt><trkpt lat="44.1029067" lon="12.1553333"><ele>258.0</ele><time>2026-03-29T10:36:18.834Z</time></trkpt><trkpt lat="44.10289" lon="12.1554267"><ele>257.99999999999994</ele><time>2026-03-29T10:36:21.828Z</time></trkpt><trkpt lat="44.10286" lon="12.15551"><ele>258.0</ele><time>2026-03-29T10:36:24.828Z</time></trkpt><trkpt lat="44.1028283" lon="12.1555883"><ele>258.0</ele><time>2026-03-29T10:36:27.829Z</time></trkpt><trkpt lat="44.1027767" lon="12.1556733"><ele>258.0</ele><time>2026-03-29T10:36:31.828Z</time></trkpt><trkpt lat="44.1027317" lon="12.1557417"><ele>258.0</ele><time>2026-03-29T10:36:35.833Z</time></trkpt><trkpt lat="44.10267" lon="12.1558133"><ele>257.99999999999994</ele><time>2026-03-29T10:36:39.826Z</time></trkpt><trkpt lat="44.10262" lon="12.1558833"><ele>258.0</ele><time>2026-03-29T10:36:42.828Z</time></trkpt><trkpt lat="44.1025667" lon="12.15594"><ele>257.57142857142856</ele><time>2026-03-29T10:36:45.826Z</time></trkpt><trkpt lat="44.1025117" lon="12.1560017"><ele>257.1428571428571</ele><time>2026-03-29T10:36:48.83Z</time></trkpt><trkpt lat="44.1024483" lon="12.1560833"><ele>256.7142857142857</ele><time>2026-03-29T10:36:52.827Z</time></trkpt><trkpt lat="44.1023983" lon="12.156155"><ele>256.2857142857143</ele><time>2026-03-29T10:36:55.827Z</time></trkpt><trkpt lat="44.1023583" lon="12.156225"><ele>255.8571428571429</ele><time>2026-03-29T10:36:58.83Z</time></trkpt><trkpt lat="44.1023217" lon="12.1563067"><ele>255.42857142857144</ele><time>2026-03-29T10:37:01.83Z</time></trkpt><trkpt lat="44.1022717" lon="12.1563917"><ele>255.0</ele><time>2026-03-29T10:37:05.829Z</time></trkpt><trkpt lat="44.102195" lon="12.156435"><ele>255.0</ele><time>2026-03-29T10:37:09.834Z</time></trkpt><trkpt lat="44.1021333" lon="12.156455"><ele>255.00000000000003</ele><time>2026-03-29T10:37:12.83Z</time></trkpt><trkpt lat="44.1020733" lon="12.1565083"><ele>255.0</ele><time>2026-03-29T10:37:17.833Z</time></trkpt><trkpt lat="44.1020117" lon="12.1565817"><ele>255.0</ele><time>2026-03-29T10:37:21.83Z</time></trkpt><trkpt lat="44.10196" lon="12.1566433"><ele>255.00000000000003</ele><time>2026-03-29T10:37:24.832Z</time></trkpt><trkpt lat="44.101895" lon="12.1567"><ele>255.0</ele><time>2026-03-29T10:37:28.829Z</time></trkpt><trkpt lat="44.10183" lon="12.1567567"><ele>255.0</ele><time>2026-03-29T10:37:32.829Z</time></trkpt><trkpt lat="44.1017817" lon="12.1568133"><ele>257.57142857142856</ele><time>2026-03-29T10:37:35.828Z</time></trkpt><trkpt lat="44.1017333" lon="12.1568733"><ele>260.14285714285717</ele><time>2026-03-29T10:37:38.828Z</time></trkpt><trkpt lat="44.1016833" lon="12.1569433"><ele>262.7142857142857</ele><time>2026-03-29T10:37:41.833Z</time></trkpt><trkpt lat="44.1016417" lon="12.15702"><ele>265.2857142857143</ele><time>2026-03-29T10:37:44.831Z</time></trkpt><trkpt lat="44.1015983" lon="12.1571"><ele>267.8571428571429</ele><time>2026-03-29T10:37:48.828Z</time></trkpt><trkpt lat="44.1015767" lon="12.1571983"><ele>270.42857142857144</ele><time>2026-03-29T10:37:52.827Z</time></trkpt><trkpt lat="44.1015417" lon="12.1572967"><ele>273.0</ele><time>2026-03-29T10:37:56.828Z</time></trkpt><trkpt lat="44.1015233" lon="12.15739"><ele>276.42857142857144</ele><time>2026-03-29T10:38:00.827Z</time></trkpt><trkpt lat="44.1014967" lon="12.15748"><ele>279.8571428571429</ele><time>2026-03-29T10:38:04.828Z</time></trkpt><trkpt lat="44.10145" lon="12.157565"><ele>283.2857142857143</ele><time>2026-03-29T10:38:09.828Z</time></trkpt><trkpt lat="44.101415" lon="12.1576533"><ele>286.7142857142857</ele><time>2026-03-29T10:38:13.829Z</time></trkpt><trkpt lat="44.1013517" lon="12.15772"><ele>290.14285714285717</ele><time>2026-03-29T10:38:17.832Z</time></trkpt><trkpt lat="44.101295" lon="12.157765"><ele>293.57142857142856</ele><time>2026-03-29T10:38:21.829Z</time></trkpt><trkpt lat="44.101225" lon="12.1578083"><ele>297.0</ele><time>2026-03-29T10:38:24.827Z</time></trkpt><trkpt lat="44.1011483" lon="12.1578133"><ele>297.0</ele><time>2026-03-29T10:38:27.833Z</time></trkpt><trkpt lat="44.101075" lon="12.15781"><ele>297.0</ele><time>2026-03-29T10:38:30.827Z</time></trkpt><trkpt lat="44.1010033" lon="12.1577567"><ele>297.0</ele><time>2026-03-29T10:38:34.829Z</time></trkpt><trkpt lat="44.100935" lon="12.1577317"><ele>297.0</ele><time>2026-03-29T10:38:37.828Z</time></trkpt><trkpt lat="44.10087" lon="12.15771"><ele>297.0</ele><time>2026-03-29T10:38:40.828Z</time></trkpt><trkpt lat="44.1008033" lon="12.1576667"><ele>297.0</ele><time>2026-03-29T10:38:43.828Z</time></trkpt><trkpt lat="44.1007317" lon="12.1576067"><ele>304.0</ele><time>2026-03-29T10:38:47.834Z</time></trkpt></trkseg></trk></gpx>